<?xml version="1.0" encoding="UTF-8" standalone="no" ?><gpx xmlns="http://www.topografix.com/GPX/1/1" xmlns:gpxx="http://www.garmin.com/xmlschemas/GpxExtensions/v3" xmlns:wptx1="http://www.garmin.com/xmlschemas/WaypointExtension/v1" xmlns:gpxtpx="http://www.garmin.com/xmlschemas/TrackPointExtension/v1" creator="GuideVTT.com" version="1.1" xmlns:xsi="http://www.w3.org/2001/XMLSchema-instance" xsi:schemaLocation="http://www.topografix.com/GPX/1/1 http://www.topografix.com/GPX/1/1/gpx.xsd http://www.garmin.com/xmlschemas/GpxExtensions/v3 http://www8.garmin.com/xmlschemas/GpxExtensionsv3.xsd http://www.garmin.com/xmlschemas/WaypointExtension/v1 http://www8.garmin.com/xmlschemas/WaypointExtensionv1.xsd http://www.garmin.com/xmlschemas/TrackPointExtension/v1 http://www.garmin.com/xmlschemas/TrackPointExtensionv1.xsd">
<metadata><link href="http://www.garmin.com"><text>Garmin International</text></link><time>2013-06-22T15:13:50Z</time></metadata>
<trk><name>rp2018_25.gpx</name><extensions><gpxx:TrackExtension><gpxx:DisplayColor>Cyan</gpxx:DisplayColor></gpxx:TrackExtension></extensions><trkseg>
<trkpt lat="46.20671" lon="7.43968"><ele>1498.2</ele><time>2018-08-10T07:38:55Z</time></trkpt>
<trkpt lat="46.20681" lon="7.43975"><ele>1489</ele><time>2018-08-10T07:39:02Z</time></trkpt>
<trkpt lat="46.20699" lon="7.43977"><ele>1490.8</ele><time>2018-08-10T07:39:09Z</time></trkpt>
<trkpt lat="46.20718" lon="7.43965"><ele>1487.6</ele><time>2018-08-10T07:39:15Z</time></trkpt>
<trkpt lat="46.20723" lon="7.43961"><ele>1485.4</ele><time>2018-08-10T07:39:17Z</time></trkpt>
<trkpt lat="46.20724" lon="7.4396"><ele>1483.2</ele><time>2018-08-10T07:39:18Z</time></trkpt>
<trkpt lat="46.2073" lon="7.43954"><ele>1485.4</ele><time>2018-08-10T07:39:21Z</time></trkpt>
<trkpt lat="46.20738" lon="7.43948"><ele>1482.4</ele><time>2018-08-10T07:39:24Z</time></trkpt>
<trkpt lat="46.20757" lon="7.43935"><ele>1477.2</ele><time>2018-08-10T07:39:30Z</time></trkpt>
<trkpt lat="46.2076" lon="7.43933"><ele>1476.6</ele><time>2018-08-10T07:39:31Z</time></trkpt>
<trkpt lat="46.20763" lon="7.43932"><ele>1476.4</ele><time>2018-08-10T07:39:32Z</time></trkpt>
<trkpt lat="46.20766" lon="7.43931"><ele>1476</ele><time>2018-08-10T07:39:33Z</time></trkpt>
<trkpt lat="46.20771" lon="7.43933"><ele>1475.6</ele><time>2018-08-10T07:39:35Z</time></trkpt>
<trkpt lat="46.20786" lon="7.43937"><ele>1475.2</ele><time>2018-08-10T07:39:40Z</time></trkpt>
<trkpt lat="46.20804" lon="7.43941"><ele>1475.8</ele><time>2018-08-10T07:39:45Z</time></trkpt>
<trkpt lat="46.20816" lon="7.43945"><ele>1475.4</ele><time>2018-08-10T07:39:48Z</time></trkpt>
<trkpt lat="46.20837" lon="7.43948"><ele>1475.6</ele><time>2018-08-10T07:39:53Z</time></trkpt>
<trkpt lat="46.2086" lon="7.43947"><ele>1475.8</ele><time>2018-08-10T07:39:58Z</time></trkpt>
<trkpt lat="46.20879" lon="7.43946"><ele>1475.8</ele><time>2018-08-10T07:40:02Z</time></trkpt>
<trkpt lat="46.209" lon="7.43939"><ele>1475.4</ele><time>2018-08-10T07:40:06Z</time></trkpt>
<trkpt lat="46.20917" lon="7.43934"><ele>1473.4</ele><time>2018-08-10T07:40:09Z</time></trkpt>
<trkpt lat="46.20937" lon="7.43932"><ele>1472</ele><time>2018-08-10T07:40:12Z</time></trkpt>
<trkpt lat="46.2096" lon="7.4393"><ele>1468.8</ele><time>2018-08-10T07:40:15Z</time></trkpt>
<trkpt lat="46.20968" lon="7.43927"><ele>1468.4</ele><time>2018-08-10T07:40:16Z</time></trkpt>
<trkpt lat="46.20989" lon="7.43909"><ele>1466.4</ele><time>2018-08-10T07:40:19Z</time></trkpt>
<trkpt lat="46.21004" lon="7.43894"><ele>1464.6</ele><time>2018-08-10T07:40:21Z</time></trkpt>
<trkpt lat="46.2102" lon="7.43878"><ele>1463</ele><time>2018-08-10T07:40:23Z</time></trkpt>
<trkpt lat="46.21037" lon="7.43862"><ele>1461</ele><time>2018-08-10T07:40:25Z</time></trkpt>
<trkpt lat="46.21053" lon="7.43844"><ele>1459.6</ele><time>2018-08-10T07:40:27Z</time></trkpt>
<trkpt lat="46.21067" lon="7.43829"><ele>1457.4</ele><time>2018-08-10T07:40:29Z</time></trkpt>
<trkpt lat="46.21084" lon="7.43812"><ele>1458.2</ele><time>2018-08-10T07:40:34Z</time></trkpt>
<trkpt lat="46.21093" lon="7.43806"><ele>1458.2</ele><time>2018-08-10T07:40:36Z</time></trkpt>
<trkpt lat="46.21097" lon="7.43802"><ele>1456.4</ele><time>2018-08-10T07:40:37Z</time></trkpt>
<trkpt lat="46.211" lon="7.43795"><ele>1455.8</ele><time>2018-08-10T07:40:38Z</time></trkpt>
<trkpt lat="46.21109" lon="7.43781"><ele>1454.2</ele><time>2018-08-10T07:40:40Z</time></trkpt>
<trkpt lat="46.21132" lon="7.43764"><ele>1452.8</ele><time>2018-08-10T07:40:47Z</time></trkpt>
<trkpt lat="46.21139" lon="7.43759"><ele>1453.8</ele><time>2018-08-10T07:40:51Z</time></trkpt>
<trkpt lat="46.21144" lon="7.43757"><ele>1453.8</ele><time>2018-08-10T07:40:54Z</time></trkpt>
<trkpt lat="46.21154" lon="7.43752"><ele>1454.8</ele><time>2018-08-10T07:40:59Z</time></trkpt>
<trkpt lat="46.21161" lon="7.43749"><ele>1455.4</ele><time>2018-08-10T07:41:03Z</time></trkpt>
<trkpt lat="46.21163" lon="7.43748"><ele>1455.6</ele><time>2018-08-10T07:41:04Z</time></trkpt>
<trkpt lat="46.21182" lon="7.43741"><ele>1458.2</ele><time>2018-08-10T07:41:14Z</time></trkpt>
<trkpt lat="46.21191" lon="7.43736"><ele>1459.4</ele><time>2018-08-10T07:41:19Z</time></trkpt>
<trkpt lat="46.21199" lon="7.43731"><ele>1460.2</ele><time>2018-08-10T07:41:23Z</time></trkpt>
<trkpt lat="46.21209" lon="7.43723"><ele>1462.2</ele><time>2018-08-10T07:41:29Z</time></trkpt>
<trkpt lat="46.21219" lon="7.43712"><ele>1464.2</ele><time>2018-08-10T07:41:36Z</time></trkpt>
<trkpt lat="46.21222" lon="7.43709"><ele>1464.8</ele><time>2018-08-10T07:41:38Z</time></trkpt>
<trkpt lat="46.21239" lon="7.43693"><ele>1467.4</ele><time>2018-08-10T07:41:49Z</time></trkpt>
<trkpt lat="46.21245" lon="7.43686"><ele>1468.2</ele><time>2018-08-10T07:41:53Z</time></trkpt>
<trkpt lat="46.21248" lon="7.43683"><ele>1468.6</ele><time>2018-08-10T07:41:55Z</time></trkpt>
<trkpt lat="46.21256" lon="7.43676"><ele>1469.4</ele><time>2018-08-10T07:42:00Z</time></trkpt>
<trkpt lat="46.21259" lon="7.43672"><ele>1469.8</ele><time>2018-08-10T07:42:02Z</time></trkpt>
<trkpt lat="46.21274" lon="7.43657"><ele>1471.6</ele><time>2018-08-10T07:42:11Z</time></trkpt>
<trkpt lat="46.21287" lon="7.43644"><ele>1473.4</ele><time>2018-08-10T07:42:19Z</time></trkpt>
<trkpt lat="46.2131" lon="7.43622"><ele>1476.4</ele><time>2018-08-10T07:42:33Z</time></trkpt>
<trkpt lat="46.21322" lon="7.43612"><ele>1478</ele><time>2018-08-10T07:42:40Z</time></trkpt>
<trkpt lat="46.21335" lon="7.436"><ele>1479.8</ele><time>2018-08-10T07:42:48Z</time></trkpt>
<trkpt lat="46.21353" lon="7.43586"><ele>1482</ele><time>2018-08-10T07:42:58Z</time></trkpt>
<trkpt lat="46.21365" lon="7.43576"><ele>1483</ele><time>2018-08-10T07:43:06Z</time></trkpt>
<trkpt lat="46.21372" lon="7.43571"><ele>1483.8</ele><time>2018-08-10T07:43:10Z</time></trkpt>
<trkpt lat="46.21378" lon="7.43566"><ele>1484.4</ele><time>2018-08-10T07:43:14Z</time></trkpt>
<trkpt lat="46.2138" lon="7.43565"><ele>1484.6</ele><time>2018-08-10T07:43:15Z</time></trkpt>
<trkpt lat="46.21393" lon="7.43554"><ele>1486.6</ele><time>2018-08-10T07:43:23Z</time></trkpt>
<trkpt lat="46.2141" lon="7.43539"><ele>1488</ele><time>2018-08-10T07:43:33Z</time></trkpt>
<trkpt lat="46.21425" lon="7.43521"><ele>1490.2</ele><time>2018-08-10T07:43:43Z</time></trkpt>
<trkpt lat="46.21441" lon="7.43508"><ele>1491.4</ele><time>2018-08-10T07:43:52Z</time></trkpt>
<trkpt lat="46.21446" lon="7.43505"><ele>1491.6</ele><time>2018-08-10T07:43:55Z</time></trkpt>
<trkpt lat="46.21448" lon="7.43504"><ele>1491.6</ele><time>2018-08-10T07:43:56Z</time></trkpt>
<trkpt lat="46.21464" lon="7.43498"><ele>1492.4</ele><time>2018-08-10T07:44:04Z</time></trkpt>
<trkpt lat="46.21471" lon="7.43495"><ele>1493.2</ele><time>2018-08-10T07:44:08Z</time></trkpt>
<trkpt lat="46.21475" lon="7.43494"><ele>1493.6</ele><time>2018-08-10T07:44:10Z</time></trkpt>
<trkpt lat="46.21494" lon="7.43494"><ele>1495.4</ele><time>2018-08-10T07:44:19Z</time></trkpt>
<trkpt lat="46.215" lon="7.43497"><ele>1496.6</ele><time>2018-08-10T07:44:22Z</time></trkpt>
<trkpt lat="46.21514" lon="7.43516"><ele>1496.2</ele><time>2018-08-10T07:44:31Z</time></trkpt>
<trkpt lat="46.21536" lon="7.43548"><ele>1499.4</ele><time>2018-08-10T07:44:47Z</time></trkpt>
<trkpt lat="46.21553" lon="7.43558"><ele>1505</ele><time>2018-08-10T07:44:57Z</time></trkpt>
<trkpt lat="46.21554" lon="7.43559"><ele>1505.6</ele><time>2018-08-10T07:44:58Z</time></trkpt>
<trkpt lat="46.21558" lon="7.4356"><ele>1507</ele><time>2018-08-10T07:45:00Z</time></trkpt>
<trkpt lat="46.21563" lon="7.43561"><ele>1509.2</ele><time>2018-08-10T07:45:03Z</time></trkpt>
<trkpt lat="46.21581" lon="7.43559"><ele>1516.2</ele><time>2018-08-10T07:45:12Z</time></trkpt>
<trkpt lat="46.216" lon="7.43555"><ele>1522.4</ele><time>2018-08-10T07:45:22Z</time></trkpt>
<trkpt lat="46.21613" lon="7.43556"><ele>1524.8</ele><time>2018-08-10T07:45:29Z</time></trkpt>
<trkpt lat="46.21621" lon="7.43558"><ele>1524.6</ele><time>2018-08-10T07:45:33Z</time></trkpt>
<trkpt lat="46.21631" lon="7.43562"><ele>1522.4</ele><time>2018-08-10T07:45:38Z</time></trkpt>
<trkpt lat="46.2165" lon="7.43567"><ele>1520</ele><time>2018-08-10T07:45:47Z</time></trkpt>
<trkpt lat="46.2166" lon="7.43571"><ele>1519</ele><time>2018-08-10T07:45:52Z</time></trkpt>
<trkpt lat="46.21679" lon="7.43575"><ele>1521.4</ele><time>2018-08-10T07:46:02Z</time></trkpt>
<trkpt lat="46.21699" lon="7.4358"><ele>1521.6</ele><time>2018-08-10T07:46:12Z</time></trkpt>
<trkpt lat="46.21718" lon="7.43583"><ele>1520.6</ele><time>2018-08-10T07:46:21Z</time></trkpt>
<trkpt lat="46.21723" lon="7.43582"><ele>1521.2</ele><time>2018-08-10T07:46:24Z</time></trkpt>
<trkpt lat="46.21746" lon="7.43578"><ele>1525.8</ele><time>2018-08-10T07:46:36Z</time></trkpt>
<trkpt lat="46.21764" lon="7.43569"><ele>1530.6</ele><time>2018-08-10T07:46:45Z</time></trkpt>
<trkpt lat="46.21767" lon="7.43566"><ele>1531.8</ele><time>2018-08-10T07:46:47Z</time></trkpt>
<trkpt lat="46.21776" lon="7.4356"><ele>1533.8</ele><time>2018-08-10T07:46:52Z</time></trkpt>
<trkpt lat="46.21785" lon="7.43553"><ele>1535.8</ele><time>2018-08-10T07:46:57Z</time></trkpt>
<trkpt lat="46.21794" lon="7.43547"><ele>1537.4</ele><time>2018-08-10T07:47:02Z</time></trkpt>
<trkpt lat="46.2181" lon="7.43536"><ele>1540.4</ele><time>2018-08-10T07:47:11Z</time></trkpt>
<trkpt lat="46.21827" lon="7.43524"><ele>1542.6</ele><time>2018-08-10T07:47:20Z</time></trkpt>
<trkpt lat="46.21835" lon="7.43519"><ele>1543.8</ele><time>2018-08-10T07:47:24Z</time></trkpt>
<trkpt lat="46.21852" lon="7.4351"><ele>1545.4</ele><time>2018-08-10T07:47:33Z</time></trkpt>
<trkpt lat="46.21873" lon="7.43507"><ele>1546.8</ele><time>2018-08-10T07:47:43Z</time></trkpt>
<trkpt lat="46.21895" lon="7.43512"><ele>1552</ele><time>2018-08-10T07:47:54Z</time></trkpt>
<trkpt lat="46.21912" lon="7.43522"><ele>1552.8</ele><time>2018-08-10T07:48:03Z</time></trkpt>
<trkpt lat="46.21926" lon="7.43527"><ele>1553.8</ele><time>2018-08-10T07:48:12Z</time></trkpt>
<trkpt lat="46.21929" lon="7.43527"><ele>1553.6</ele><time>2018-08-10T07:48:14Z</time></trkpt>
<trkpt lat="46.21938" lon="7.43525"><ele>1554.2</ele><time>2018-08-10T07:48:18Z</time></trkpt>
<trkpt lat="46.21957" lon="7.43522"><ele>1554.4</ele><time>2018-08-10T07:48:27Z</time></trkpt>
<trkpt lat="46.21977" lon="7.43518"><ele>1553.4</ele><time>2018-08-10T07:48:36Z</time></trkpt>
<trkpt lat="46.21999" lon="7.43519"><ele>1551.4</ele><time>2018-08-10T07:48:46Z</time></trkpt>
<trkpt lat="46.2201" lon="7.4352"><ele>1550.4</ele><time>2018-08-10T07:48:51Z</time></trkpt>
<trkpt lat="46.22012" lon="7.4352"><ele>1550.4</ele><time>2018-08-10T07:48:52Z</time></trkpt>
<trkpt lat="46.2203" lon="7.43526"><ele>1551.2</ele><time>2018-08-10T07:49:01Z</time></trkpt>
<trkpt lat="46.22044" lon="7.43545"><ele>1551</ele><time>2018-08-10T07:49:09Z</time></trkpt>
<trkpt lat="46.22046" lon="7.43553"><ele>1552</ele><time>2018-08-10T07:49:12Z</time></trkpt>
<trkpt lat="46.2205" lon="7.43578"><ele>1555</ele><time>2018-08-10T07:49:23Z</time></trkpt>
<trkpt lat="46.22051" lon="7.43582"><ele>1556.2</ele><time>2018-08-10T07:49:26Z</time></trkpt>
<trkpt lat="46.22051" lon="7.43581"><ele>1555.6</ele><time>2018-08-10T07:49:34Z</time></trkpt>
<trkpt lat="46.22052" lon="7.43581"><ele>1555.8</ele><time>2018-08-10T07:49:39Z</time></trkpt>
<trkpt lat="46.22052" lon="7.4358"><ele>1555.8</ele><time>2018-08-10T07:49:44Z</time></trkpt>
<trkpt lat="46.22053" lon="7.43579"><ele>1557.6</ele><time>2018-08-10T07:49:59Z</time></trkpt>
<trkpt lat="46.22055" lon="7.43579"><ele>1558</ele><time>2018-08-10T07:50:05Z</time></trkpt>
<trkpt lat="46.22055" lon="7.43581"><ele>1558</ele><time>2018-08-10T07:50:14Z</time></trkpt>
<trkpt lat="46.22056" lon="7.4358"><ele>1558.6</ele><time>2018-08-10T07:50:20Z</time></trkpt>
<trkpt lat="46.22056" lon="7.4358"><ele>1558.6</ele><time>2018-08-10T07:50:23Z</time></trkpt>
<trkpt lat="46.22057" lon="7.43581"><ele>1558.4</ele><time>2018-08-10T07:50:32Z</time></trkpt>
<trkpt lat="46.22057" lon="7.43581"><ele>1558.6</ele><time>2018-08-10T07:50:33Z</time></trkpt>
<trkpt lat="46.22057" lon="7.43581"><ele>1558.6</ele><time>2018-08-10T07:50:34Z</time></trkpt>
<trkpt lat="46.22057" lon="7.43581"><ele>1558.8</ele><time>2018-08-10T07:50:36Z</time></trkpt>
<trkpt lat="46.22058" lon="7.43582"><ele>1558.8</ele><time>2018-08-10T07:50:38Z</time></trkpt>
<trkpt lat="46.22059" lon="7.43582"><ele>1559</ele><time>2018-08-10T07:50:41Z</time></trkpt>
<trkpt lat="46.2206" lon="7.43582"><ele>1559.2</ele><time>2018-08-10T07:50:44Z</time></trkpt>
<trkpt lat="46.22065" lon="7.4358"><ele>1559.4</ele><time>2018-08-10T07:50:51Z</time></trkpt>
<trkpt lat="46.22085" lon="7.43576"><ele>1559.8</ele><time>2018-08-10T07:50:57Z</time></trkpt>
<trkpt lat="46.2209" lon="7.43574"><ele>1559.8</ele><time>2018-08-10T07:50:58Z</time></trkpt>
<trkpt lat="46.22094" lon="7.4357"><ele>1559.8</ele><time>2018-08-10T07:50:59Z</time></trkpt>
<trkpt lat="46.22109" lon="7.43553"><ele>1559.8</ele><time>2018-08-10T07:51:02Z</time></trkpt>
<trkpt lat="46.22119" lon="7.43543"><ele>1559</ele><time>2018-08-10T07:51:04Z</time></trkpt>
<trkpt lat="46.22134" lon="7.43551"><ele>1555.6</ele><time>2018-08-10T07:51:07Z</time></trkpt>
<trkpt lat="46.22138" lon="7.43555"><ele>1555.4</ele><time>2018-08-10T07:51:08Z</time></trkpt>
<trkpt lat="46.22151" lon="7.43571"><ele>1555</ele><time>2018-08-10T07:51:14Z</time></trkpt>
<trkpt lat="46.22164" lon="7.43579"><ele>1556.4</ele><time>2018-08-10T07:51:23Z</time></trkpt>
<trkpt lat="46.22168" lon="7.4358"><ele>1557.6</ele><time>2018-08-10T07:51:26Z</time></trkpt>
<trkpt lat="46.22171" lon="7.4358"><ele>1558</ele><time>2018-08-10T07:51:28Z</time></trkpt>
<trkpt lat="46.22176" lon="7.4358"><ele>1559.4</ele><time>2018-08-10T07:51:31Z</time></trkpt>
<trkpt lat="46.22177" lon="7.4358"><ele>1559.8</ele><time>2018-08-10T07:51:32Z</time></trkpt>
<trkpt lat="46.22182" lon="7.43581"><ele>1560.6</ele><time>2018-08-10T07:51:35Z</time></trkpt>
<trkpt lat="46.22187" lon="7.43584"><ele>1561.4</ele><time>2018-08-10T07:51:38Z</time></trkpt>
<trkpt lat="46.22199" lon="7.43594"><ele>1563.2</ele><time>2018-08-10T07:51:47Z</time></trkpt>
<trkpt lat="46.22204" lon="7.436"><ele>1565.2</ele><time>2018-08-10T07:51:51Z</time></trkpt>
<trkpt lat="46.2221" lon="7.43607"><ele>1568.8</ele><time>2018-08-10T07:51:56Z</time></trkpt>
<trkpt lat="46.22222" lon="7.43625"><ele>1575.2</ele><time>2018-08-10T07:52:09Z</time></trkpt>
<trkpt lat="46.22234" lon="7.43647"><ele>1579.6</ele><time>2018-08-10T07:52:23Z</time></trkpt>
<trkpt lat="46.22236" lon="7.43651"><ele>1580.4</ele><time>2018-08-10T07:52:25Z</time></trkpt>
<trkpt lat="46.22239" lon="7.43659"><ele>1582.6</ele><time>2018-08-10T07:52:30Z</time></trkpt>
<trkpt lat="46.22253" lon="7.43678"><ele>1588.2</ele><time>2018-08-10T07:52:42Z</time></trkpt>
<trkpt lat="46.22256" lon="7.43681"><ele>1589</ele><time>2018-08-10T07:52:44Z</time></trkpt>
<trkpt lat="46.22256" lon="7.43683"><ele>1589.2</ele><time>2018-08-10T07:52:45Z</time></trkpt>
<trkpt lat="46.22263" lon="7.43695"><ele>1591.4</ele><time>2018-08-10T07:52:51Z</time></trkpt>
<trkpt lat="46.22269" lon="7.43707"><ele>1592.8</ele><time>2018-08-10T07:52:57Z</time></trkpt>
<trkpt lat="46.22277" lon="7.43736"><ele>1594.2</ele><time>2018-08-10T07:53:09Z</time></trkpt>
<trkpt lat="46.22278" lon="7.43741"><ele>1594.6</ele><time>2018-08-10T07:53:11Z</time></trkpt>
<trkpt lat="46.22286" lon="7.43765"><ele>1598</ele><time>2018-08-10T07:53:22Z</time></trkpt>
<trkpt lat="46.22293" lon="7.4379"><ele>1601.8</ele><time>2018-08-10T07:53:33Z</time></trkpt>
<trkpt lat="46.22294" lon="7.43794"><ele>1602.4</ele><time>2018-08-10T07:53:35Z</time></trkpt>
<trkpt lat="46.22296" lon="7.43814"><ele>1603.2</ele><time>2018-08-10T07:53:43Z</time></trkpt>
<trkpt lat="46.22296" lon="7.43817"><ele>1603.2</ele><time>2018-08-10T07:53:44Z</time></trkpt>
<trkpt lat="46.22297" lon="7.4382"><ele>1603.4</ele><time>2018-08-10T07:53:45Z</time></trkpt>
<trkpt lat="46.22303" lon="7.43839"><ele>1603.8</ele><time>2018-08-10T07:53:52Z</time></trkpt>
<trkpt lat="46.22307" lon="7.43854"><ele>1604.6</ele><time>2018-08-10T07:53:59Z</time></trkpt>
<trkpt lat="46.22309" lon="7.43857"><ele>1604.6</ele><time>2018-08-10T07:54:00Z</time></trkpt>
<trkpt lat="46.22313" lon="7.43871"><ele>1605.4</ele><time>2018-08-10T07:54:07Z</time></trkpt>
<trkpt lat="46.22313" lon="7.43872"><ele>1605.6</ele><time>2018-08-10T07:54:08Z</time></trkpt>
<trkpt lat="46.22313" lon="7.43874"><ele>1605.8</ele><time>2018-08-10T07:54:09Z</time></trkpt>
<trkpt lat="46.22313" lon="7.43876"><ele>1605.8</ele><time>2018-08-10T07:54:10Z</time></trkpt>
<trkpt lat="46.22315" lon="7.43888"><ele>1606.8</ele><time>2018-08-10T07:54:16Z</time></trkpt>
<trkpt lat="46.22315" lon="7.43907"><ele>1608.6</ele><time>2018-08-10T07:54:25Z</time></trkpt>
<trkpt lat="46.22315" lon="7.43909"><ele>1608.8</ele><time>2018-08-10T07:54:26Z</time></trkpt>
<trkpt lat="46.22314" lon="7.43919"><ele>1609.4</ele><time>2018-08-10T07:54:30Z</time></trkpt>
<trkpt lat="46.22322" lon="7.43939"><ele>1608.6</ele><time>2018-08-10T07:54:38Z</time></trkpt>
<trkpt lat="46.2233" lon="7.43964"><ele>1606.2</ele><time>2018-08-10T07:54:47Z</time></trkpt>
<trkpt lat="46.22332" lon="7.43979"><ele>1603.8</ele><time>2018-08-10T07:54:51Z</time></trkpt>
<trkpt lat="46.22332" lon="7.4398"><ele>1604</ele><time>2018-08-10T07:54:52Z</time></trkpt>
<trkpt lat="46.22334" lon="7.4399"><ele>1603.8</ele><time>2018-08-10T07:54:57Z</time></trkpt>
<trkpt lat="46.2233" lon="7.44007"><ele>1603</ele><time>2018-08-10T07:55:04Z</time></trkpt>
<trkpt lat="46.22329" lon="7.44034"><ele>1603.2</ele><time>2018-08-10T07:55:16Z</time></trkpt>
<trkpt lat="46.22328" lon="7.44038"><ele>1603.4</ele><time>2018-08-10T07:55:18Z</time></trkpt>
<trkpt lat="46.22322" lon="7.44056"><ele>1605.2</ele><time>2018-08-10T07:55:27Z</time></trkpt>
<trkpt lat="46.22324" lon="7.44083"><ele>1609.2</ele><time>2018-08-10T07:55:40Z</time></trkpt>
<trkpt lat="46.22327" lon="7.4409"><ele>1610.8</ele><time>2018-08-10T07:55:44Z</time></trkpt>
<trkpt lat="46.2233" lon="7.44097"><ele>1612.4</ele><time>2018-08-10T07:55:48Z</time></trkpt>
<trkpt lat="46.22333" lon="7.44123"><ele>1616.4</ele><time>2018-08-10T07:55:59Z</time></trkpt>
<trkpt lat="46.22333" lon="7.44128"><ele>1617</ele><time>2018-08-10T07:56:01Z</time></trkpt>
<trkpt lat="46.22333" lon="7.44138"><ele>1618.2</ele><time>2018-08-10T07:56:05Z</time></trkpt>
<trkpt lat="46.22327" lon="7.44173"><ele>1623.2</ele><time>2018-08-10T07:56:21Z</time></trkpt>
<trkpt lat="46.22337" lon="7.44194"><ele>1625</ele><time>2018-08-10T07:56:30Z</time></trkpt>
<trkpt lat="46.22347" lon="7.44212"><ele>1626.4</ele><time>2018-08-10T07:56:37Z</time></trkpt>
<trkpt lat="46.22346" lon="7.44215"><ele>1625.4</ele><time>2018-08-10T07:56:38Z</time></trkpt>
<trkpt lat="46.22344" lon="7.44225"><ele>1624.2</ele><time>2018-08-10T07:56:41Z</time></trkpt>
<trkpt lat="46.22343" lon="7.44229"><ele>1623.8</ele><time>2018-08-10T07:56:42Z</time></trkpt>
<trkpt lat="46.22342" lon="7.44239"><ele>1622.6</ele><time>2018-08-10T07:56:45Z</time></trkpt>
<trkpt lat="46.22341" lon="7.44246"><ele>1621.2</ele><time>2018-08-10T07:56:47Z</time></trkpt>
<trkpt lat="46.2234" lon="7.44252"><ele>1620.2</ele><time>2018-08-10T07:56:49Z</time></trkpt>
<trkpt lat="46.22339" lon="7.4426"><ele>1618.8</ele><time>2018-08-10T07:56:52Z</time></trkpt>
<trkpt lat="46.22334" lon="7.44287"><ele>1615.8</ele><time>2018-08-10T07:57:03Z</time></trkpt>
<trkpt lat="46.22334" lon="7.44303"><ele>1616.8</ele><time>2018-08-10T07:57:11Z</time></trkpt>
<trkpt lat="46.22342" lon="7.44339"><ele>1616.4</ele><time>2018-08-10T07:57:27Z</time></trkpt>
<trkpt lat="46.22344" lon="7.44354"><ele>1617.6</ele><time>2018-08-10T07:57:33Z</time></trkpt>
<trkpt lat="46.22339" lon="7.4438"><ele>1620.4</ele><time>2018-08-10T07:57:45Z</time></trkpt>
<trkpt lat="46.22336" lon="7.44395"><ele>1621.8</ele><time>2018-08-10T07:57:51Z</time></trkpt>
<trkpt lat="46.22337" lon="7.44409"><ele>1623.4</ele><time>2018-08-10T07:57:57Z</time></trkpt>
<trkpt lat="46.22344" lon="7.44433"><ele>1625.4</ele><time>2018-08-10T07:58:09Z</time></trkpt>
<trkpt lat="46.22347" lon="7.4444"><ele>1626.4</ele><time>2018-08-10T07:58:13Z</time></trkpt>
<trkpt lat="46.22348" lon="7.44442"><ele>1626.6</ele><time>2018-08-10T07:58:14Z</time></trkpt>
<trkpt lat="46.22352" lon="7.44454"><ele>1628</ele><time>2018-08-10T07:58:20Z</time></trkpt>
<trkpt lat="46.22357" lon="7.44485"><ele>1631.4</ele><time>2018-08-10T07:58:34Z</time></trkpt>
<trkpt lat="46.22358" lon="7.44496"><ele>1631.4</ele><time>2018-08-10T07:58:39Z</time></trkpt>
<trkpt lat="46.22359" lon="7.44508"><ele>1631.6</ele><time>2018-08-10T07:58:44Z</time></trkpt>
<trkpt lat="46.22362" lon="7.44516"><ele>1632</ele><time>2018-08-10T07:58:48Z</time></trkpt>
<trkpt lat="46.22362" lon="7.44529"><ele>1633</ele><time>2018-08-10T07:58:54Z</time></trkpt>
<trkpt lat="46.22361" lon="7.44554"><ele>1634.4</ele><time>2018-08-10T07:59:05Z</time></trkpt>
<trkpt lat="46.22356" lon="7.44569"><ele>1635.8</ele><time>2018-08-10T07:59:13Z</time></trkpt>
<trkpt lat="46.22355" lon="7.44573"><ele>1635.8</ele><time>2018-08-10T07:59:15Z</time></trkpt>
<trkpt lat="46.22349" lon="7.44594"><ele>1637</ele><time>2018-08-10T07:59:24Z</time></trkpt>
<trkpt lat="46.22348" lon="7.44597"><ele>1637.6</ele><time>2018-08-10T07:59:26Z</time></trkpt>
<trkpt lat="46.22346" lon="7.44625"><ele>1638</ele><time>2018-08-10T07:59:39Z</time></trkpt>
<trkpt lat="46.2234" lon="7.44651"><ele>1638.4</ele><time>2018-08-10T07:59:52Z</time></trkpt>
<trkpt lat="46.22336" lon="7.44675"><ele>1639.6</ele><time>2018-08-10T08:00:04Z</time></trkpt>
<trkpt lat="46.22335" lon="7.44702"><ele>1642</ele><time>2018-08-10T08:00:16Z</time></trkpt>
<trkpt lat="46.22335" lon="7.44707"><ele>1642.6</ele><time>2018-08-10T08:00:18Z</time></trkpt>
<trkpt lat="46.22339" lon="7.44735"><ele>1646.2</ele><time>2018-08-10T08:00:30Z</time></trkpt>
<trkpt lat="46.22341" lon="7.44751"><ele>1648.4</ele><time>2018-08-10T08:00:37Z</time></trkpt>
<trkpt lat="46.22339" lon="7.44758"><ele>1649.2</ele><time>2018-08-10T08:00:40Z</time></trkpt>
<trkpt lat="46.22333" lon="7.44765"><ele>1650</ele><time>2018-08-10T08:00:44Z</time></trkpt>
<trkpt lat="46.22319" lon="7.4478"><ele>1652.8</ele><time>2018-08-10T08:00:55Z</time></trkpt>
<trkpt lat="46.22319" lon="7.44782"><ele>1653.2</ele><time>2018-08-10T08:00:56Z</time></trkpt>
<trkpt lat="46.22311" lon="7.44803"><ele>1656.2</ele><time>2018-08-10T08:01:08Z</time></trkpt>
<trkpt lat="46.22308" lon="7.44807"><ele>1656.6</ele><time>2018-08-10T08:01:10Z</time></trkpt>
<trkpt lat="46.22306" lon="7.44812"><ele>1657.4</ele><time>2018-08-10T08:01:13Z</time></trkpt>
<trkpt lat="46.22304" lon="7.44823"><ele>1659</ele><time>2018-08-10T08:01:18Z</time></trkpt>
<trkpt lat="46.22305" lon="7.44839"><ele>1661</ele><time>2018-08-10T08:01:25Z</time></trkpt>
<trkpt lat="46.22306" lon="7.44849"><ele>1662.2</ele><time>2018-08-10T08:01:29Z</time></trkpt>
<trkpt lat="46.22311" lon="7.44858"><ele>1663.6</ele><time>2018-08-10T08:01:33Z</time></trkpt>
<trkpt lat="46.22311" lon="7.4487"><ele>1665.6</ele><time>2018-08-10T08:01:38Z</time></trkpt>
<trkpt lat="46.2231" lon="7.44885"><ele>1668.2</ele><time>2018-08-10T08:01:45Z</time></trkpt>
<trkpt lat="46.22303" lon="7.44911"><ele>1668.8</ele><time>2018-08-10T08:01:55Z</time></trkpt>
<trkpt lat="46.22296" lon="7.44937"><ele>1667.4</ele><time>2018-08-10T08:02:04Z</time></trkpt>
<trkpt lat="46.22293" lon="7.44963"><ele>1665.6</ele><time>2018-08-10T08:02:14Z</time></trkpt>
<trkpt lat="46.22293" lon="7.44966"><ele>1665.4</ele><time>2018-08-10T08:02:15Z</time></trkpt>
<trkpt lat="46.22293" lon="7.44976"><ele>1664.8</ele><time>2018-08-10T08:02:19Z</time></trkpt>
<trkpt lat="46.22291" lon="7.45003"><ele>1664.2</ele><time>2018-08-10T08:02:31Z</time></trkpt>
<trkpt lat="46.22288" lon="7.45025"><ele>1666</ele><time>2018-08-10T08:02:40Z</time></trkpt>
<trkpt lat="46.22287" lon="7.45027"><ele>1666.2</ele><time>2018-08-10T08:02:41Z</time></trkpt>
<trkpt lat="46.22286" lon="7.45037"><ele>1667</ele><time>2018-08-10T08:02:45Z</time></trkpt>
<trkpt lat="46.22283" lon="7.45065"><ele>1668.6</ele><time>2018-08-10T08:02:57Z</time></trkpt>
<trkpt lat="46.22284" lon="7.45102"><ele>1675.4</ele><time>2018-08-10T08:03:13Z</time></trkpt>
<trkpt lat="46.22284" lon="7.45104"><ele>1675.6</ele><time>2018-08-10T08:03:14Z</time></trkpt>
<trkpt lat="46.22281" lon="7.4513"><ele>1675.6</ele><time>2018-08-10T08:03:24Z</time></trkpt>
<trkpt lat="46.22276" lon="7.45157"><ele>1677</ele><time>2018-08-10T08:03:35Z</time></trkpt>
<trkpt lat="46.22275" lon="7.45169"><ele>1678</ele><time>2018-08-10T08:03:40Z</time></trkpt>
<trkpt lat="46.22281" lon="7.45195"><ele>1681.6</ele><time>2018-08-10T08:03:52Z</time></trkpt>
<trkpt lat="46.22289" lon="7.45219"><ele>1684.8</ele><time>2018-08-10T08:04:03Z</time></trkpt>
<trkpt lat="46.22298" lon="7.45243"><ele>1687.4</ele><time>2018-08-10T08:04:14Z</time></trkpt>
<trkpt lat="46.223" lon="7.45267"><ele>1688.8</ele><time>2018-08-10T08:04:23Z</time></trkpt>
<trkpt lat="46.22294" lon="7.45292"><ele>1689.8</ele><time>2018-08-10T08:04:33Z</time></trkpt>
<trkpt lat="46.2229" lon="7.45299"><ele>1690</ele><time>2018-08-10T08:04:36Z</time></trkpt>
<trkpt lat="46.22285" lon="7.45294"><ele>1690.2</ele><time>2018-08-10T08:04:40Z</time></trkpt>
<trkpt lat="46.22286" lon="7.45266"><ele>1690.2</ele><time>2018-08-10T08:04:49Z</time></trkpt>
<trkpt lat="46.22284" lon="7.45256"><ele>1690.4</ele><time>2018-08-10T08:04:52Z</time></trkpt>
<trkpt lat="46.22273" lon="7.45232"><ele>1690.4</ele><time>2018-08-10T08:04:59Z</time></trkpt>
<trkpt lat="46.22259" lon="7.45211"><ele>1690.4</ele><time>2018-08-10T08:05:06Z</time></trkpt>
<trkpt lat="46.22245" lon="7.45192"><ele>1690</ele><time>2018-08-10T08:05:12Z</time></trkpt>
<trkpt lat="46.22237" lon="7.4517"><ele>1689.2</ele><time>2018-08-10T08:05:19Z</time></trkpt>
<trkpt lat="46.22236" lon="7.45156"><ele>1689</ele><time>2018-08-10T08:05:22Z</time></trkpt>
<trkpt lat="46.22237" lon="7.45111"><ele>1689.8</ele><time>2018-08-10T08:05:32Z</time></trkpt>
<trkpt lat="46.22228" lon="7.45087"><ele>1689.2</ele><time>2018-08-10T08:05:38Z</time></trkpt>
<trkpt lat="46.22224" lon="7.4506"><ele>1691.2</ele><time>2018-08-10T08:05:44Z</time></trkpt>
<trkpt lat="46.2222" lon="7.45031"><ele>1691.2</ele><time>2018-08-10T08:05:51Z</time></trkpt>
<trkpt lat="46.22209" lon="7.4501"><ele>1694</ele><time>2018-08-10T08:05:57Z</time></trkpt>
<trkpt lat="46.22195" lon="7.44991"><ele>1693.8</ele><time>2018-08-10T08:06:03Z</time></trkpt>
<trkpt lat="46.2219" lon="7.44974"><ele>1694.8</ele><time>2018-08-10T08:06:07Z</time></trkpt>
<trkpt lat="46.22197" lon="7.4495"><ele>1696</ele><time>2018-08-10T08:06:14Z</time></trkpt>
<trkpt lat="46.22198" lon="7.44924"><ele>1698.2</ele><time>2018-08-10T08:06:21Z</time></trkpt>
<trkpt lat="46.22197" lon="7.44913"><ele>1700.4</ele><time>2018-08-10T08:06:24Z</time></trkpt>
<trkpt lat="46.22202" lon="7.4488"><ele>1701.8</ele><time>2018-08-10T08:06:33Z</time></trkpt>
<trkpt lat="46.222" lon="7.44853"><ele>1704.2</ele><time>2018-08-10T08:06:40Z</time></trkpt>
<trkpt lat="46.22188" lon="7.44829"><ele>1710.8</ele><time>2018-08-10T08:06:47Z</time></trkpt>
<trkpt lat="46.22174" lon="7.44809"><ele>1710.8</ele><time>2018-08-10T08:06:53Z</time></trkpt>
<trkpt lat="46.2217" lon="7.44797"><ele>1710.4</ele><time>2018-08-10T08:06:56Z</time></trkpt>
<trkpt lat="46.22172" lon="7.44768"><ele>1707.2</ele><time>2018-08-10T08:07:04Z</time></trkpt>
<trkpt lat="46.22164" lon="7.44743"><ele>1704.2</ele><time>2018-08-10T08:07:11Z</time></trkpt>
<trkpt lat="46.22157" lon="7.44717"><ele>1704.2</ele><time>2018-08-10T08:07:20Z</time></trkpt>
<trkpt lat="46.22149" lon="7.44692"><ele>1706.8</ele><time>2018-08-10T08:07:28Z</time></trkpt>
<trkpt lat="46.22147" lon="7.44686"><ele>1707.2</ele><time>2018-08-10T08:07:30Z</time></trkpt>
<trkpt lat="46.22144" lon="7.44677"><ele>1708.4</ele><time>2018-08-10T08:07:33Z</time></trkpt>
<trkpt lat="46.22141" lon="7.44667"><ele>1709.8</ele><time>2018-08-10T08:07:37Z</time></trkpt>
<trkpt lat="46.2214" lon="7.44665"><ele>1710.4</ele><time>2018-08-10T08:07:38Z</time></trkpt>
<trkpt lat="46.22127" lon="7.44645"><ele>1713.6</ele><time>2018-08-10T08:07:47Z</time></trkpt>
<trkpt lat="46.22122" lon="7.44634"><ele>1717</ele><time>2018-08-10T08:07:52Z</time></trkpt>
<trkpt lat="46.22121" lon="7.44614"><ele>1725.2</ele><time>2018-08-10T08:07:58Z</time></trkpt>
<trkpt lat="46.2212" lon="7.44592"><ele>1734</ele><time>2018-08-10T08:08:04Z</time></trkpt>
<trkpt lat="46.22125" lon="7.44573"><ele>1740.4</ele><time>2018-08-10T08:08:10Z</time></trkpt>
<trkpt lat="46.22129" lon="7.44545"><ele>1736.4</ele><time>2018-08-10T08:08:17Z</time></trkpt>
<trkpt lat="46.2213" lon="7.44518"><ele>1731.8</ele><time>2018-08-10T08:08:24Z</time></trkpt>
<trkpt lat="46.22125" lon="7.4448"><ele>1730</ele><time>2018-08-10T08:08:32Z</time></trkpt>
<trkpt lat="46.22119" lon="7.44454"><ele>1727</ele><time>2018-08-10T08:08:37Z</time></trkpt>
<trkpt lat="46.22107" lon="7.44435"><ele>1727</ele><time>2018-08-10T08:08:42Z</time></trkpt>
<trkpt lat="46.22094" lon="7.44415"><ele>1725.4</ele><time>2018-08-10T08:08:48Z</time></trkpt>
<trkpt lat="46.22083" lon="7.44401"><ele>1727</ele><time>2018-08-10T08:08:53Z</time></trkpt>
<trkpt lat="46.2207" lon="7.44383"><ele>1727.2</ele><time>2018-08-10T08:08:59Z</time></trkpt>
<trkpt lat="46.22068" lon="7.4438"><ele>1727.2</ele><time>2018-08-10T08:09:00Z</time></trkpt>
<trkpt lat="46.22062" lon="7.44371"><ele>1728.4</ele><time>2018-08-10T08:09:03Z</time></trkpt>
<trkpt lat="46.2205" lon="7.4435"><ele>1729</ele><time>2018-08-10T08:09:10Z</time></trkpt>
<trkpt lat="46.22042" lon="7.44337"><ele>1729</ele><time>2018-08-10T08:09:15Z</time></trkpt>
<trkpt lat="46.22015" lon="7.44319"><ele>1730</ele><time>2018-08-10T08:09:28Z</time></trkpt>
<trkpt lat="46.22014" lon="7.44318"><ele>1730.6</ele><time>2018-08-10T08:09:29Z</time></trkpt>
<trkpt lat="46.21997" lon="7.44305"><ele>1730.8</ele><time>2018-08-10T08:09:36Z</time></trkpt>
<trkpt lat="46.21981" lon="7.44292"><ele>1730</ele><time>2018-08-10T08:09:42Z</time></trkpt>
<trkpt lat="46.21965" lon="7.44279"><ele>1730.6</ele><time>2018-08-10T08:09:48Z</time></trkpt>
<trkpt lat="46.21962" lon="7.44277"><ele>1730.2</ele><time>2018-08-10T08:09:49Z</time></trkpt>
<trkpt lat="46.21953" lon="7.44275"><ele>1729.8</ele><time>2018-08-10T08:09:52Z</time></trkpt>
<trkpt lat="46.2194" lon="7.44276"><ele>1729.8</ele><time>2018-08-10T08:09:56Z</time></trkpt>
<trkpt lat="46.21919" lon="7.44275"><ele>1729.8</ele><time>2018-08-10T08:10:02Z</time></trkpt>
<trkpt lat="46.21901" lon="7.44282"><ele>1731.4</ele><time>2018-08-10T08:10:08Z</time></trkpt>
<trkpt lat="46.21874" lon="7.44262"><ele>1731.6</ele><time>2018-08-10T08:10:18Z</time></trkpt>
<trkpt lat="46.21867" lon="7.44251"><ele>1729.4</ele><time>2018-08-10T08:10:21Z</time></trkpt>
<trkpt lat="46.21852" lon="7.44236"><ele>1727.2</ele><time>2018-08-10T08:10:25Z</time></trkpt>
<trkpt lat="46.21843" lon="7.44231"><ele>1727</ele><time>2018-08-10T08:10:27Z</time></trkpt>
<trkpt lat="46.21822" lon="7.4423"><ele>1725.2</ele><time>2018-08-10T08:10:31Z</time></trkpt>
<trkpt lat="46.21798" lon="7.44231"><ele>1724.2</ele><time>2018-08-10T08:10:35Z</time></trkpt>
<trkpt lat="46.21791" lon="7.4423"><ele>1723.8</ele><time>2018-08-10T08:10:36Z</time></trkpt>
<trkpt lat="46.2177" lon="7.44228"><ele>1723</ele><time>2018-08-10T08:10:39Z</time></trkpt>
<trkpt lat="46.21748" lon="7.44222"><ele>1722</ele><time>2018-08-10T08:10:43Z</time></trkpt>
<trkpt lat="46.21727" lon="7.44234"><ele>1721</ele><time>2018-08-10T08:10:47Z</time></trkpt>
<trkpt lat="46.21711" lon="7.44243"><ele>1720.6</ele><time>2018-08-10T08:10:50Z</time></trkpt>
<trkpt lat="46.21692" lon="7.44248"><ele>1719.8</ele><time>2018-08-10T08:10:53Z</time></trkpt>
<trkpt lat="46.21685" lon="7.44248"><ele>1720.2</ele><time>2018-08-10T08:10:54Z</time></trkpt>
<trkpt lat="46.21667" lon="7.44244"><ele>1718.8</ele><time>2018-08-10T08:10:57Z</time></trkpt>
<trkpt lat="46.21654" lon="7.44244"><ele>1719</ele><time>2018-08-10T08:10:59Z</time></trkpt>
<trkpt lat="46.21636" lon="7.44249"><ele>1718.2</ele><time>2018-08-10T08:11:02Z</time></trkpt>
<trkpt lat="46.2163" lon="7.44252"><ele>1718</ele><time>2018-08-10T08:11:03Z</time></trkpt>
<trkpt lat="46.21614" lon="7.44265"><ele>1717.4</ele><time>2018-08-10T08:11:06Z</time></trkpt>
<trkpt lat="46.21603" lon="7.44277"><ele>1716.8</ele><time>2018-08-10T08:11:08Z</time></trkpt>
<trkpt lat="46.21593" lon="7.44288"><ele>1717</ele><time>2018-08-10T08:11:10Z</time></trkpt>
<trkpt lat="46.21576" lon="7.44294"><ele>1718.8</ele><time>2018-08-10T08:11:14Z</time></trkpt>
<trkpt lat="46.21569" lon="7.44295"><ele>1719.4</ele><time>2018-08-10T08:11:16Z</time></trkpt>
<trkpt lat="46.21559" lon="7.44302"><ele>1721.4</ele><time>2018-08-10T08:11:20Z</time></trkpt>
<trkpt lat="46.21554" lon="7.44306"><ele>1721.2</ele><time>2018-08-10T08:11:22Z</time></trkpt>
<trkpt lat="46.21546" lon="7.44318"><ele>1719.6</ele><time>2018-08-10T08:11:26Z</time></trkpt>
<trkpt lat="46.21545" lon="7.44321"><ele>1718.8</ele><time>2018-08-10T08:11:27Z</time></trkpt>
<trkpt lat="46.21536" lon="7.44343"><ele>1719.4</ele><time>2018-08-10T08:11:34Z</time></trkpt>
<trkpt lat="46.21533" lon="7.44351"><ele>1720</ele><time>2018-08-10T08:11:37Z</time></trkpt>
<trkpt lat="46.2153" lon="7.44369"><ele>1722.2</ele><time>2018-08-10T08:11:43Z</time></trkpt>
<trkpt lat="46.21525" lon="7.44392"><ele>1725.2</ele><time>2018-08-10T08:11:51Z</time></trkpt>
<trkpt lat="46.21525" lon="7.44395"><ele>1725.6</ele><time>2018-08-10T08:11:52Z</time></trkpt>
<trkpt lat="46.21518" lon="7.44419"><ele>1727.2</ele><time>2018-08-10T08:12:01Z</time></trkpt>
<trkpt lat="46.21511" lon="7.44459"><ele>1729.4</ele><time>2018-08-10T08:12:16Z</time></trkpt>
<trkpt lat="46.21507" lon="7.44485"><ele>1728.8</ele><time>2018-08-10T08:12:25Z</time></trkpt>
<trkpt lat="46.21506" lon="7.4449"><ele>1728.8</ele><time>2018-08-10T08:12:27Z</time></trkpt>
<trkpt lat="46.21506" lon="7.44492"><ele>1728.8</ele><time>2018-08-10T08:12:28Z</time></trkpt>
<trkpt lat="46.21507" lon="7.44497"><ele>1729.4</ele><time>2018-08-10T08:12:30Z</time></trkpt>
<trkpt lat="46.21505" lon="7.44509"><ele>1730.8</ele><time>2018-08-10T08:12:35Z</time></trkpt>
<trkpt lat="46.21505" lon="7.44512"><ele>1731.2</ele><time>2018-08-10T08:12:36Z</time></trkpt>
<trkpt lat="46.21497" lon="7.44536"><ele>1735.4</ele><time>2018-08-10T08:12:47Z</time></trkpt>
<trkpt lat="46.21493" lon="7.44545"><ele>1737</ele><time>2018-08-10T08:12:51Z</time></trkpt>
<trkpt lat="46.21491" lon="7.44549"><ele>1738</ele><time>2018-08-10T08:12:53Z</time></trkpt>
<trkpt lat="46.21485" lon="7.4456"><ele>1740.8</ele><time>2018-08-10T08:12:58Z</time></trkpt>
<trkpt lat="46.21477" lon="7.44583"><ele>1744</ele><time>2018-08-10T08:13:08Z</time></trkpt>
<trkpt lat="46.21472" lon="7.44609"><ele>1746.6</ele><time>2018-08-10T08:13:19Z</time></trkpt>
<trkpt lat="46.21465" lon="7.44635"><ele>1749.8</ele><time>2018-08-10T08:13:30Z</time></trkpt>
<trkpt lat="46.21463" lon="7.44645"><ele>1750.6</ele><time>2018-08-10T08:13:34Z</time></trkpt>
<trkpt lat="46.21458" lon="7.44654"><ele>1751.6</ele><time>2018-08-10T08:13:38Z</time></trkpt>
<trkpt lat="46.21445" lon="7.44675"><ele>1755.2</ele><time>2018-08-10T08:13:49Z</time></trkpt>
<trkpt lat="46.21434" lon="7.4469"><ele>1758</ele><time>2018-08-10T08:13:58Z</time></trkpt>
<trkpt lat="46.21428" lon="7.44696"><ele>1759</ele><time>2018-08-10T08:14:02Z</time></trkpt>
<trkpt lat="46.21419" lon="7.44707"><ele>1760.8</ele><time>2018-08-10T08:14:08Z</time></trkpt>
<trkpt lat="46.21416" lon="7.44711"><ele>1761.8</ele><time>2018-08-10T08:14:11Z</time></trkpt>
<trkpt lat="46.21403" lon="7.44727"><ele>1763.6</ele><time>2018-08-10T08:14:20Z</time></trkpt>
<trkpt lat="46.21387" lon="7.44743"><ele>1766.2</ele><time>2018-08-10T08:14:30Z</time></trkpt>
<trkpt lat="46.21373" lon="7.44761"><ele>1767.4</ele><time>2018-08-10T08:14:41Z</time></trkpt>
<trkpt lat="46.21359" lon="7.44783"><ele>1767.4</ele><time>2018-08-10T08:14:54Z</time></trkpt>
<trkpt lat="46.21343" lon="7.448"><ele>1768</ele><time>2018-08-10T08:15:05Z</time></trkpt>
<trkpt lat="46.21328" lon="7.44819"><ele>1768.6</ele><time>2018-08-10T08:15:15Z</time></trkpt>
<trkpt lat="46.21326" lon="7.44824"><ele>1768.4</ele><time>2018-08-10T08:15:17Z</time></trkpt>
<trkpt lat="46.21319" lon="7.44843"><ele>1768.6</ele><time>2018-08-10T08:15:27Z</time></trkpt>
<trkpt lat="46.21314" lon="7.44848"><ele>1768.2</ele><time>2018-08-10T08:15:31Z</time></trkpt>
<trkpt lat="46.21313" lon="7.44849"><ele>1768.2</ele><time>2018-08-10T08:15:32Z</time></trkpt>
<trkpt lat="46.21305" lon="7.4487"><ele>1769.8</ele><time>2018-08-10T08:15:46Z</time></trkpt>
<trkpt lat="46.21303" lon="7.44872"><ele>1770.2</ele><time>2018-08-10T08:15:48Z</time></trkpt>
<trkpt lat="46.213" lon="7.44878"><ele>1771.2</ele><time>2018-08-10T08:15:52Z</time></trkpt>
<trkpt lat="46.21298" lon="7.44879"><ele>1771.4</ele><time>2018-08-10T08:15:53Z</time></trkpt>
<trkpt lat="46.21292" lon="7.44884"><ele>1772.4</ele><time>2018-08-10T08:15:58Z</time></trkpt>
<trkpt lat="46.21281" lon="7.44894"><ele>1773.2</ele><time>2018-08-10T08:16:06Z</time></trkpt>
<trkpt lat="46.21278" lon="7.44897"><ele>1773.2</ele><time>2018-08-10T08:16:08Z</time></trkpt>
<trkpt lat="46.21277" lon="7.44899"><ele>1773.4</ele><time>2018-08-10T08:16:09Z</time></trkpt>
<trkpt lat="46.21275" lon="7.449"><ele>1773.4</ele><time>2018-08-10T08:16:10Z</time></trkpt>
<trkpt lat="46.21272" lon="7.44904"><ele>1773.6</ele><time>2018-08-10T08:16:12Z</time></trkpt>
<trkpt lat="46.2127" lon="7.44906"><ele>1773.4</ele><time>2018-08-10T08:16:13Z</time></trkpt>
<trkpt lat="46.21267" lon="7.44909"><ele>1773.6</ele><time>2018-08-10T08:16:15Z</time></trkpt>
<trkpt lat="46.21263" lon="7.44913"><ele>1773.6</ele><time>2018-08-10T08:16:17Z</time></trkpt>
<trkpt lat="46.2126" lon="7.44918"><ele>1773.8</ele><time>2018-08-10T08:16:19Z</time></trkpt>
<trkpt lat="46.21258" lon="7.44923"><ele>1773.6</ele><time>2018-08-10T08:16:21Z</time></trkpt>
<trkpt lat="46.21255" lon="7.44929"><ele>1773.6</ele><time>2018-08-10T08:16:23Z</time></trkpt>
<trkpt lat="46.21251" lon="7.44934"><ele>1773.6</ele><time>2018-08-10T08:16:25Z</time></trkpt>
<trkpt lat="46.2124" lon="7.44952"><ele>1773</ele><time>2018-08-10T08:16:31Z</time></trkpt>
<trkpt lat="46.21236" lon="7.44957"><ele>1773</ele><time>2018-08-10T08:16:33Z</time></trkpt>
<trkpt lat="46.21231" lon="7.4496"><ele>1773.6</ele><time>2018-08-10T08:16:35Z</time></trkpt>
<trkpt lat="46.21202" lon="7.44979"><ele>1776</ele><time>2018-08-10T08:16:45Z</time></trkpt>
<trkpt lat="46.21183" lon="7.44989"><ele>1777.6</ele><time>2018-08-10T08:16:51Z</time></trkpt>
<trkpt lat="46.21172" lon="7.44995"><ele>1777.4</ele><time>2018-08-10T08:16:55Z</time></trkpt>
<trkpt lat="46.21157" lon="7.45009"><ele>1776.6</ele><time>2018-08-10T08:17:01Z</time></trkpt>
<trkpt lat="46.21145" lon="7.45019"><ele>1777.2</ele><time>2018-08-10T08:17:07Z</time></trkpt>
<trkpt lat="46.21129" lon="7.45033"><ele>1779.2</ele><time>2018-08-10T08:17:19Z</time></trkpt>
<trkpt lat="46.21112" lon="7.45043"><ele>1782</ele><time>2018-08-10T08:17:29Z</time></trkpt>
<trkpt lat="46.21097" lon="7.45051"><ele>1784</ele><time>2018-08-10T08:17:39Z</time></trkpt>
<trkpt lat="46.21084" lon="7.45061"><ele>1786</ele><time>2018-08-10T08:17:49Z</time></trkpt>
<trkpt lat="46.21074" lon="7.45069"><ele>1788</ele><time>2018-08-10T08:17:57Z</time></trkpt>
<trkpt lat="46.2107" lon="7.45073"><ele>1788.8</ele><time>2018-08-10T08:18:01Z</time></trkpt>
<trkpt lat="46.21065" lon="7.4508"><ele>1789.6</ele><time>2018-08-10T08:18:06Z</time></trkpt>
<trkpt lat="46.21056" lon="7.45088"><ele>1790.8</ele><time>2018-08-10T08:18:13Z</time></trkpt>
<trkpt lat="46.21049" lon="7.45093"><ele>1792</ele><time>2018-08-10T08:18:18Z</time></trkpt>
<trkpt lat="46.21037" lon="7.45105"><ele>1793.6</ele><time>2018-08-10T08:18:29Z</time></trkpt>
<trkpt lat="46.21021" lon="7.45112"><ele>1795.4</ele><time>2018-08-10T08:18:39Z</time></trkpt>
<trkpt lat="46.21013" lon="7.45116"><ele>1796.8</ele><time>2018-08-10T08:18:45Z</time></trkpt>
<trkpt lat="46.2099" lon="7.45121"><ele>1799.2</ele><time>2018-08-10T08:19:00Z</time></trkpt>
<trkpt lat="46.20986" lon="7.45123"><ele>1799.8</ele><time>2018-08-10T08:19:03Z</time></trkpt>
<trkpt lat="46.20968" lon="7.45128"><ele>1801.2</ele><time>2018-08-10T08:19:15Z</time></trkpt>
<trkpt lat="46.20947" lon="7.45131"><ele>1803</ele><time>2018-08-10T08:19:23Z</time></trkpt>
<trkpt lat="46.20926" lon="7.45133"><ele>1805</ele><time>2018-08-10T08:19:30Z</time></trkpt>
<trkpt lat="46.20906" lon="7.45137"><ele>1806.2</ele><time>2018-08-10T08:19:37Z</time></trkpt>
<trkpt lat="46.20896" lon="7.45138"><ele>1807</ele><time>2018-08-10T08:19:40Z</time></trkpt>
<trkpt lat="46.2088" lon="7.45139"><ele>1810</ele><time>2018-08-10T08:19:45Z</time></trkpt>
<trkpt lat="46.20875" lon="7.45138"><ele>1810.6</ele><time>2018-08-10T08:19:47Z</time></trkpt>
<trkpt lat="46.20857" lon="7.45138"><ele>1812.2</ele><time>2018-08-10T08:19:53Z</time></trkpt>
<trkpt lat="46.20843" lon="7.45141"><ele>1812.2</ele><time>2018-08-10T08:19:58Z</time></trkpt>
<trkpt lat="46.20834" lon="7.45143"><ele>1813</ele><time>2018-08-10T08:20:01Z</time></trkpt>
<trkpt lat="46.2082" lon="7.45142"><ele>1815.6</ele><time>2018-08-10T08:20:09Z</time></trkpt>
<trkpt lat="46.20812" lon="7.45142"><ele>1817</ele><time>2018-08-10T08:20:14Z</time></trkpt>
<trkpt lat="46.20794" lon="7.45136"><ele>1820.8</ele><time>2018-08-10T08:20:26Z</time></trkpt>
<trkpt lat="46.20774" lon="7.45134"><ele>1822.6</ele><time>2018-08-10T08:20:41Z</time></trkpt>
<trkpt lat="46.20764" lon="7.45135"><ele>1823.2</ele><time>2018-08-10T08:20:47Z</time></trkpt>
<trkpt lat="46.2076" lon="7.45134"><ele>1823.4</ele><time>2018-08-10T08:20:51Z</time></trkpt>
<trkpt lat="46.20749" lon="7.45137"><ele>1824</ele><time>2018-08-10T08:20:59Z</time></trkpt>
<trkpt lat="46.20741" lon="7.45137"><ele>1824.8</ele><time>2018-08-10T08:21:04Z</time></trkpt>
<trkpt lat="46.20728" lon="7.45138"><ele>1826.2</ele><time>2018-08-10T08:21:14Z</time></trkpt>
<trkpt lat="46.20709" lon="7.45141"><ele>1827.6</ele><time>2018-08-10T08:21:26Z</time></trkpt>
<trkpt lat="46.20694" lon="7.45143"><ele>1829.2</ele><time>2018-08-10T08:21:36Z</time></trkpt>
<trkpt lat="46.20682" lon="7.45144"><ele>1830</ele><time>2018-08-10T08:21:46Z</time></trkpt>
<trkpt lat="46.20673" lon="7.45149"><ele>1829.2</ele><time>2018-08-10T08:21:54Z</time></trkpt>
<trkpt lat="46.20666" lon="7.45153"><ele>1829</ele><time>2018-08-10T08:22:01Z</time></trkpt>
<trkpt lat="46.20649" lon="7.45165"><ele>1829</ele><time>2018-08-10T08:22:12Z</time></trkpt>
<trkpt lat="46.20633" lon="7.45175"><ele>1829</ele><time>2018-08-10T08:22:20Z</time></trkpt>
<trkpt lat="46.20615" lon="7.45183"><ele>1828.8</ele><time>2018-08-10T08:22:27Z</time></trkpt>
<trkpt lat="46.20599" lon="7.45187"><ele>1828.8</ele><time>2018-08-10T08:22:33Z</time></trkpt>
<trkpt lat="46.20587" lon="7.45188"><ele>1829.4</ele><time>2018-08-10T08:22:37Z</time></trkpt>
<trkpt lat="46.2057" lon="7.45185"><ele>1830.4</ele><time>2018-08-10T08:22:42Z</time></trkpt>
<trkpt lat="46.20544" lon="7.45179"><ele>1828.8</ele><time>2018-08-10T08:22:50Z</time></trkpt>
<trkpt lat="46.20525" lon="7.45178"><ele>1827.8</ele><time>2018-08-10T08:22:55Z</time></trkpt>
<trkpt lat="46.20507" lon="7.45172"><ele>1828.6</ele><time>2018-08-10T08:23:01Z</time></trkpt>
<trkpt lat="46.20503" lon="7.45171"><ele>1828.6</ele><time>2018-08-10T08:23:04Z</time></trkpt>
<trkpt lat="46.20493" lon="7.4517"><ele>1829.2</ele><time>2018-08-10T08:23:10Z</time></trkpt>
<trkpt lat="46.2048" lon="7.4517"><ele>1830.2</ele><time>2018-08-10T08:23:19Z</time></trkpt>
<trkpt lat="46.20471" lon="7.45173"><ele>1831</ele><time>2018-08-10T08:23:26Z</time></trkpt>
<trkpt lat="46.20458" lon="7.45178"><ele>1830.8</ele><time>2018-08-10T08:23:36Z</time></trkpt>
<trkpt lat="46.20444" lon="7.45181"><ele>1831.6</ele><time>2018-08-10T08:23:46Z</time></trkpt>
<trkpt lat="46.20433" lon="7.45182"><ele>1832.6</ele><time>2018-08-10T08:23:54Z</time></trkpt>
<trkpt lat="46.20428" lon="7.45182"><ele>1832.8</ele><time>2018-08-10T08:23:57Z</time></trkpt>
<trkpt lat="46.20421" lon="7.45184"><ele>1833.2</ele><time>2018-08-10T08:24:02Z</time></trkpt>
<trkpt lat="46.20419" lon="7.45184"><ele>1833.2</ele><time>2018-08-10T08:24:03Z</time></trkpt>
<trkpt lat="46.20401" lon="7.45188"><ele>1834.4</ele><time>2018-08-10T08:24:16Z</time></trkpt>
<trkpt lat="46.20392" lon="7.45191"><ele>1835.2</ele><time>2018-08-10T08:24:23Z</time></trkpt>
<trkpt lat="46.2038" lon="7.45192"><ele>1837</ele><time>2018-08-10T08:24:32Z</time></trkpt>
<trkpt lat="46.20362" lon="7.45196"><ele>1839</ele><time>2018-08-10T08:24:45Z</time></trkpt>
<trkpt lat="46.2034" lon="7.45176"><ele>1839.6</ele><time>2018-08-10T08:24:53Z</time></trkpt>
<trkpt lat="46.20336" lon="7.45146"><ele>1840.2</ele><time>2018-08-10T08:24:58Z</time></trkpt>
<trkpt lat="46.20338" lon="7.45127"><ele>1840.6</ele><time>2018-08-10T08:25:04Z</time></trkpt>
<trkpt lat="46.20338" lon="7.45115"><ele>1840.8</ele><time>2018-08-10T08:25:08Z</time></trkpt>
<trkpt lat="46.20336" lon="7.45098"><ele>1842</ele><time>2018-08-10T08:25:13Z</time></trkpt>
<trkpt lat="46.20331" lon="7.45077"><ele>1842</ele><time>2018-08-10T08:25:19Z</time></trkpt>
<trkpt lat="46.20338" lon="7.45063"><ele>1841</ele><time>2018-08-10T08:25:23Z</time></trkpt>
<trkpt lat="46.20345" lon="7.45055"><ele>1841.2</ele><time>2018-08-10T08:25:27Z</time></trkpt>
<trkpt lat="46.20348" lon="7.45051"><ele>1841.2</ele><time>2018-08-10T08:25:29Z</time></trkpt>
<trkpt lat="46.20348" lon="7.45041"><ele>1838</ele><time>2018-08-10T08:25:33Z</time></trkpt>
<trkpt lat="46.20337" lon="7.45016"><ele>1833.4</ele><time>2018-08-10T08:25:39Z</time></trkpt>
<trkpt lat="46.20331" lon="7.44985"><ele>1830.4</ele><time>2018-08-10T08:25:47Z</time></trkpt>
<trkpt lat="46.20326" lon="7.44966"><ele>1826.6</ele><time>2018-08-10T08:25:53Z</time></trkpt>
<trkpt lat="46.20323" lon="7.44954"><ele>1823</ele><time>2018-08-10T08:25:57Z</time></trkpt>
<trkpt lat="46.20313" lon="7.44932"><ele>1817.2</ele><time>2018-08-10T08:26:04Z</time></trkpt>
<trkpt lat="46.20311" lon="7.4493"><ele>1816.2</ele><time>2018-08-10T08:26:05Z</time></trkpt>
<trkpt lat="46.20296" lon="7.44913"><ele>1812</ele><time>2018-08-10T08:26:12Z</time></trkpt>
<trkpt lat="46.20291" lon="7.44908"><ele>1811.6</ele><time>2018-08-10T08:26:14Z</time></trkpt>
<trkpt lat="46.20271" lon="7.44896"><ele>1808.6</ele><time>2018-08-10T08:26:20Z</time></trkpt>
<trkpt lat="46.20262" lon="7.44882"><ele>1808.2</ele><time>2018-08-10T08:26:24Z</time></trkpt>
<trkpt lat="46.20249" lon="7.44867"><ele>1806.6</ele><time>2018-08-10T08:26:29Z</time></trkpt>
<trkpt lat="46.20226" lon="7.44861"><ele>1805.8</ele><time>2018-08-10T08:26:34Z</time></trkpt>
<trkpt lat="46.2022" lon="7.4486"><ele>1805.4</ele><time>2018-08-10T08:26:36Z</time></trkpt>
<trkpt lat="46.20216" lon="7.44851"><ele>1806.2</ele><time>2018-08-10T08:26:40Z</time></trkpt>
<trkpt lat="46.20224" lon="7.44841"><ele>1807.2</ele><time>2018-08-10T08:26:44Z</time></trkpt>
<trkpt lat="46.20227" lon="7.44834"><ele>1807.6</ele><time>2018-08-10T08:26:46Z</time></trkpt>
<trkpt lat="46.20239" lon="7.44816"><ele>1809.4</ele><time>2018-08-10T08:26:51Z</time></trkpt>
<trkpt lat="46.20257" lon="7.44812"><ele>1810.2</ele><time>2018-08-10T08:26:56Z</time></trkpt>
<trkpt lat="46.20276" lon="7.44806"><ele>1812</ele><time>2018-08-10T08:27:01Z</time></trkpt>
<trkpt lat="46.20296" lon="7.44808"><ele>1812.8</ele><time>2018-08-10T08:27:06Z</time></trkpt>
<trkpt lat="46.20318" lon="7.44817"><ele>1812.4</ele><time>2018-08-10T08:27:11Z</time></trkpt>
<trkpt lat="46.20331" lon="7.44825"><ele>1812.4</ele><time>2018-08-10T08:27:14Z</time></trkpt>
<trkpt lat="46.2034" lon="7.44832"><ele>1812.2</ele><time>2018-08-10T08:27:17Z</time></trkpt>
<trkpt lat="46.20343" lon="7.44812"><ele>1809.6</ele><time>2018-08-10T08:27:23Z</time></trkpt>
<trkpt lat="46.20339" lon="7.44808"><ele>1809</ele><time>2018-08-10T08:27:24Z</time></trkpt>
<trkpt lat="46.20324" lon="7.44791"><ele>1802.8</ele><time>2018-08-10T08:27:29Z</time></trkpt>
<trkpt lat="46.20308" lon="7.44774"><ele>1798.6</ele><time>2018-08-10T08:27:33Z</time></trkpt>
<trkpt lat="46.20289" lon="7.44766"><ele>1796.2</ele><time>2018-08-10T08:27:37Z</time></trkpt>
<trkpt lat="46.20267" lon="7.44758"><ele>1791.8</ele><time>2018-08-10T08:27:41Z</time></trkpt>
<trkpt lat="46.2025" lon="7.44753"><ele>1789.2</ele><time>2018-08-10T08:27:44Z</time></trkpt>
<trkpt lat="46.20227" lon="7.44751"><ele>1786.2</ele><time>2018-08-10T08:27:48Z</time></trkpt>
<trkpt lat="46.20222" lon="7.44752"><ele>1785.6</ele><time>2018-08-10T08:27:49Z</time></trkpt>
<trkpt lat="46.20202" lon="7.44761"><ele>1782.4</ele><time>2018-08-10T08:27:53Z</time></trkpt>
<trkpt lat="46.20197" lon="7.44766"><ele>1781.2</ele><time>2018-08-10T08:27:54Z</time></trkpt>
<trkpt lat="46.2019" lon="7.4477"><ele>1780.6</ele><time>2018-08-10T08:27:55Z</time></trkpt>
<trkpt lat="46.20177" lon="7.44775"><ele>1778.6</ele><time>2018-08-10T08:27:57Z</time></trkpt>
<trkpt lat="46.20158" lon="7.4478"><ele>1775.6</ele><time>2018-08-10T08:28:00Z</time></trkpt>
<trkpt lat="46.20147" lon="7.44786"><ele>1773.8</ele><time>2018-08-10T08:28:02Z</time></trkpt>
<trkpt lat="46.20131" lon="7.44793"><ele>1771.6</ele><time>2018-08-10T08:28:05Z</time></trkpt>
<trkpt lat="46.2012" lon="7.4479"><ele>1769.8</ele><time>2018-08-10T08:28:07Z</time></trkpt>
<trkpt lat="46.20105" lon="7.4479"><ele>1767.2</ele><time>2018-08-10T08:28:10Z</time></trkpt>
<trkpt lat="46.20092" lon="7.44808"><ele>1762.8</ele><time>2018-08-10T08:28:14Z</time></trkpt>
<trkpt lat="46.20085" lon="7.44837"><ele>1762.8</ele><time>2018-08-10T08:28:18Z</time></trkpt>
<trkpt lat="46.20076" lon="7.44859"><ele>1761.8</ele><time>2018-08-10T08:28:21Z</time></trkpt>
<trkpt lat="46.20073" lon="7.44865"><ele>1761.2</ele><time>2018-08-10T08:28:22Z</time></trkpt>
<trkpt lat="46.20065" lon="7.44879"><ele>1760.2</ele><time>2018-08-10T08:28:24Z</time></trkpt>
<trkpt lat="46.20054" lon="7.44902"><ele>1758.2</ele><time>2018-08-10T08:28:27Z</time></trkpt>
<trkpt lat="46.2005" lon="7.44909"><ele>1758</ele><time>2018-08-10T08:28:28Z</time></trkpt>
<trkpt lat="46.20037" lon="7.44925"><ele>1755.4</ele><time>2018-08-10T08:28:31Z</time></trkpt>
<trkpt lat="46.20025" lon="7.44953"><ele>1750.6</ele><time>2018-08-10T08:28:35Z</time></trkpt>
<trkpt lat="46.20019" lon="7.44969"><ele>1748.2</ele><time>2018-08-10T08:28:37Z</time></trkpt>
<trkpt lat="46.19999" lon="7.44974"><ele>1748.4</ele><time>2018-08-10T08:28:41Z</time></trkpt>
<trkpt lat="46.2" lon="7.4495"><ele>1748.6</ele><time>2018-08-10T08:28:45Z</time></trkpt>
<trkpt lat="46.20003" lon="7.44943"><ele>1748.2</ele><time>2018-08-10T08:28:46Z</time></trkpt>
<trkpt lat="46.2001" lon="7.4493"><ele>1747.2</ele><time>2018-08-10T08:28:48Z</time></trkpt>
<trkpt lat="46.20015" lon="7.44903"><ele>1746.6</ele><time>2018-08-10T08:28:51Z</time></trkpt>
<trkpt lat="46.20016" lon="7.44883"><ele>1745.8</ele><time>2018-08-10T08:28:53Z</time></trkpt>
<trkpt lat="46.20016" lon="7.44864"><ele>1745.2</ele><time>2018-08-10T08:28:55Z</time></trkpt>
<trkpt lat="46.20011" lon="7.44836"><ele>1744.8</ele><time>2018-08-10T08:28:58Z</time></trkpt>
<trkpt lat="46.20004" lon="7.4481"><ele>1744</ele><time>2018-08-10T08:29:01Z</time></trkpt>
<trkpt lat="46.19994" lon="7.44788"><ele>1744.4</ele><time>2018-08-10T08:29:04Z</time></trkpt>
<trkpt lat="46.19991" lon="7.44757"><ele>1745.2</ele><time>2018-08-10T08:29:08Z</time></trkpt>
<trkpt lat="46.2" lon="7.44734"><ele>1743</ele><time>2018-08-10T08:29:11Z</time></trkpt>
<trkpt lat="46.2001" lon="7.4471"><ele>1741.2</ele><time>2018-08-10T08:29:14Z</time></trkpt>
<trkpt lat="46.20017" lon="7.44681"><ele>1738.6</ele><time>2018-08-10T08:29:17Z</time></trkpt>
<trkpt lat="46.20019" lon="7.44672"><ele>1738.2</ele><time>2018-08-10T08:29:18Z</time></trkpt>
<trkpt lat="46.20025" lon="7.44645"><ele>1735.8</ele><time>2018-08-10T08:29:21Z</time></trkpt>
<trkpt lat="46.20027" lon="7.44616"><ele>1735.2</ele><time>2018-08-10T08:29:24Z</time></trkpt>
<trkpt lat="46.20027" lon="7.44587"><ele>1733.8</ele><time>2018-08-10T08:29:27Z</time></trkpt>
<trkpt lat="46.20028" lon="7.44578"><ele>1733.2</ele><time>2018-08-10T08:29:28Z</time></trkpt>
<trkpt lat="46.20032" lon="7.44553"><ele>1731</ele><time>2018-08-10T08:29:31Z</time></trkpt>
<trkpt lat="46.2004" lon="7.44527"><ele>1728.4</ele><time>2018-08-10T08:29:34Z</time></trkpt>
<trkpt lat="46.20046" lon="7.44511"><ele>1726.6</ele><time>2018-08-10T08:29:36Z</time></trkpt>
<trkpt lat="46.20056" lon="7.44487"><ele>1724.6</ele><time>2018-08-10T08:29:39Z</time></trkpt>
<trkpt lat="46.20065" lon="7.44474"><ele>1723.4</ele><time>2018-08-10T08:29:41Z</time></trkpt>
<trkpt lat="46.20069" lon="7.44468"><ele>1723</ele><time>2018-08-10T08:29:42Z</time></trkpt>
<trkpt lat="46.20088" lon="7.44447"><ele>1720</ele><time>2018-08-10T08:29:46Z</time></trkpt>
<trkpt lat="46.20095" lon="7.44423"><ele>1718</ele><time>2018-08-10T08:29:49Z</time></trkpt>
<trkpt lat="46.20096" lon="7.44396"><ele>1716.2</ele><time>2018-08-10T08:29:52Z</time></trkpt>
<trkpt lat="46.20105" lon="7.44369"><ele>1713</ele><time>2018-08-10T08:29:55Z</time></trkpt>
<trkpt lat="46.20113" lon="7.44351"><ele>1710.6</ele><time>2018-08-10T08:29:57Z</time></trkpt>
<trkpt lat="46.20126" lon="7.44324"><ele>1706.8</ele><time>2018-08-10T08:30:00Z</time></trkpt>
<trkpt lat="46.20138" lon="7.44298"><ele>1704</ele><time>2018-08-10T08:30:03Z</time></trkpt>
<trkpt lat="46.20142" lon="7.4429"><ele>1703.2</ele><time>2018-08-10T08:30:04Z</time></trkpt>
<trkpt lat="46.20151" lon="7.44262"><ele>1700.6</ele><time>2018-08-10T08:30:07Z</time></trkpt>
<trkpt lat="46.20154" lon="7.44254"><ele>1698.8</ele><time>2018-08-10T08:30:08Z</time></trkpt>
<trkpt lat="46.20158" lon="7.44247"><ele>1698</ele><time>2018-08-10T08:30:09Z</time></trkpt>
<trkpt lat="46.20177" lon="7.44228"><ele>1694</ele><time>2018-08-10T08:30:13Z</time></trkpt>
<trkpt lat="46.20188" lon="7.44224"><ele>1692.2</ele><time>2018-08-10T08:30:15Z</time></trkpt>
<trkpt lat="46.20194" lon="7.44223"><ele>1691.6</ele><time>2018-08-10T08:30:16Z</time></trkpt>
<trkpt lat="46.20206" lon="7.44222"><ele>1690.8</ele><time>2018-08-10T08:30:18Z</time></trkpt>
<trkpt lat="46.20226" lon="7.44208"><ele>1688.6</ele><time>2018-08-10T08:30:22Z</time></trkpt>
<trkpt lat="46.20234" lon="7.4419"><ele>1686.2</ele><time>2018-08-10T08:30:25Z</time></trkpt>
<trkpt lat="46.20236" lon="7.44181"><ele>1683.4</ele><time>2018-08-10T08:30:27Z</time></trkpt>
<trkpt lat="46.20213" lon="7.44173"><ele>1680.4</ele><time>2018-08-10T08:30:31Z</time></trkpt>
<trkpt lat="46.20196" lon="7.4416"><ele>1677.4</ele><time>2018-08-10T08:30:34Z</time></trkpt>
<trkpt lat="46.20173" lon="7.44162"><ele>1667.8</ele><time>2018-08-10T08:30:38Z</time></trkpt>
<trkpt lat="46.20152" lon="7.44162"><ele>1663.2</ele><time>2018-08-10T08:30:41Z</time></trkpt>
<trkpt lat="46.20139" lon="7.44158"><ele>1661</ele><time>2018-08-10T08:30:43Z</time></trkpt>
<trkpt lat="46.20119" lon="7.44153"><ele>1657.4</ele><time>2018-08-10T08:30:46Z</time></trkpt>
<trkpt lat="46.20097" lon="7.44154"><ele>1653.6</ele><time>2018-08-10T08:30:49Z</time></trkpt>
<trkpt lat="46.20076" lon="7.44155"><ele>1650.4</ele><time>2018-08-10T08:30:52Z</time></trkpt>
<trkpt lat="46.20063" lon="7.44156"><ele>1648.8</ele><time>2018-08-10T08:30:54Z</time></trkpt>
<trkpt lat="46.20048" lon="7.44158"><ele>1645.4</ele><time>2018-08-10T08:30:57Z</time></trkpt>
<trkpt lat="46.20025" lon="7.44152"><ele>1643.8</ele><time>2018-08-10T08:31:01Z</time></trkpt>
<trkpt lat="46.20005" lon="7.44151"><ele>1643</ele><time>2018-08-10T08:31:04Z</time></trkpt>
<trkpt lat="46.19987" lon="7.4416"><ele>1641</ele><time>2018-08-10T08:31:07Z</time></trkpt>
<trkpt lat="46.19981" lon="7.44164"><ele>1640</ele><time>2018-08-10T08:31:08Z</time></trkpt>
<trkpt lat="46.19976" lon="7.44169"><ele>1639</ele><time>2018-08-10T08:31:09Z</time></trkpt>
<trkpt lat="46.1996" lon="7.44188"><ele>1637</ele><time>2018-08-10T08:31:12Z</time></trkpt>
<trkpt lat="46.1995" lon="7.44201"><ele>1635.2</ele><time>2018-08-10T08:31:14Z</time></trkpt>
<trkpt lat="46.19931" lon="7.44221"><ele>1633.6</ele><time>2018-08-10T08:31:17Z</time></trkpt>
<trkpt lat="46.19911" lon="7.44241"><ele>1631.6</ele><time>2018-08-10T08:31:20Z</time></trkpt>
<trkpt lat="46.19893" lon="7.44263"><ele>1628.8</ele><time>2018-08-10T08:31:23Z</time></trkpt>
<trkpt lat="46.19879" lon="7.44291"><ele>1626.6</ele><time>2018-08-10T08:31:26Z</time></trkpt>
<trkpt lat="46.19863" lon="7.44321"><ele>1624.8</ele><time>2018-08-10T08:31:29Z</time></trkpt>
<trkpt lat="46.19852" lon="7.44338"><ele>1624.2</ele><time>2018-08-10T08:31:31Z</time></trkpt>
<trkpt lat="46.19834" lon="7.44356"><ele>1622.4</ele><time>2018-08-10T08:31:34Z</time></trkpt>
<trkpt lat="46.19825" lon="7.44386"><ele>1619.2</ele><time>2018-08-10T08:31:37Z</time></trkpt>
<trkpt lat="46.19822" lon="7.44411"><ele>1618.8</ele><time>2018-08-10T08:31:39Z</time></trkpt>
<trkpt lat="46.19821" lon="7.44423"><ele>1618.2</ele><time>2018-08-10T08:31:40Z</time></trkpt>
<trkpt lat="46.19811" lon="7.44459"><ele>1615.6</ele><time>2018-08-10T08:31:43Z</time></trkpt>
<trkpt lat="46.19803" lon="7.44495"><ele>1613.2</ele><time>2018-08-10T08:31:46Z</time></trkpt>
<trkpt lat="46.19802" lon="7.4453"><ele>1609.8</ele><time>2018-08-10T08:31:49Z</time></trkpt>
<trkpt lat="46.19799" lon="7.44559"><ele>1607.6</ele><time>2018-08-10T08:31:53Z</time></trkpt>
<trkpt lat="46.19786" lon="7.44538"><ele>1607.2</ele><time>2018-08-10T08:31:58Z</time></trkpt>
<trkpt lat="46.19785" lon="7.44512"><ele>1605.4</ele><time>2018-08-10T08:32:01Z</time></trkpt>
<trkpt lat="46.19785" lon="7.4448"><ele>1603.8</ele><time>2018-08-10T08:32:04Z</time></trkpt>
<trkpt lat="46.19784" lon="7.44445"><ele>1602.8</ele><time>2018-08-10T08:32:07Z</time></trkpt>
<trkpt lat="46.19782" lon="7.4441"><ele>1602</ele><time>2018-08-10T08:32:10Z</time></trkpt>
<trkpt lat="46.19781" lon="7.44376"><ele>1600.8</ele><time>2018-08-10T08:32:13Z</time></trkpt>
<trkpt lat="46.1978" lon="7.44342"><ele>1598.2</ele><time>2018-08-10T08:32:16Z</time></trkpt>
<trkpt lat="46.19779" lon="7.44307"><ele>1595.2</ele><time>2018-08-10T08:32:19Z</time></trkpt>
<trkpt lat="46.19777" lon="7.4427"><ele>1591</ele><time>2018-08-10T08:32:22Z</time></trkpt>
<trkpt lat="46.19776" lon="7.44231"><ele>1587.8</ele><time>2018-08-10T08:32:25Z</time></trkpt>
<trkpt lat="46.19775" lon="7.44204"><ele>1586</ele><time>2018-08-10T08:32:27Z</time></trkpt>
<trkpt lat="46.19774" lon="7.44176"><ele>1584</ele><time>2018-08-10T08:32:29Z</time></trkpt>
<trkpt lat="46.19773" lon="7.44149"><ele>1582.6</ele><time>2018-08-10T08:32:31Z</time></trkpt>
<trkpt lat="46.19772" lon="7.44122"><ele>1581.2</ele><time>2018-08-10T08:32:33Z</time></trkpt>
<trkpt lat="46.19771" lon="7.44094"><ele>1579.8</ele><time>2018-08-10T08:32:35Z</time></trkpt>
<trkpt lat="46.19771" lon="7.44065"><ele>1578.2</ele><time>2018-08-10T08:32:37Z</time></trkpt>
<trkpt lat="46.19772" lon="7.44049"><ele>1577.2</ele><time>2018-08-10T08:32:38Z</time></trkpt>
<trkpt lat="46.19776" lon="7.44018"><ele>1575.2</ele><time>2018-08-10T08:32:40Z</time></trkpt>
<trkpt lat="46.19781" lon="7.43986"><ele>1572.8</ele><time>2018-08-10T08:32:42Z</time></trkpt>
<trkpt lat="46.19785" lon="7.43956"><ele>1570.8</ele><time>2018-08-10T08:32:44Z</time></trkpt>
<trkpt lat="46.19792" lon="7.43927"><ele>1567.2</ele><time>2018-08-10T08:32:46Z</time></trkpt>
<trkpt lat="46.19799" lon="7.43901"><ele>1564</ele><time>2018-08-10T08:32:48Z</time></trkpt>
<trkpt lat="46.19807" lon="7.43875"><ele>1562.2</ele><time>2018-08-10T08:32:50Z</time></trkpt>
<trkpt lat="46.19816" lon="7.43851"><ele>1560.4</ele><time>2018-08-10T08:32:52Z</time></trkpt>
<trkpt lat="46.19825" lon="7.43829"><ele>1559.2</ele><time>2018-08-10T08:32:54Z</time></trkpt>
<trkpt lat="46.19835" lon="7.43807"><ele>1557.8</ele><time>2018-08-10T08:32:56Z</time></trkpt>
<trkpt lat="46.19841" lon="7.43797"><ele>1557.2</ele><time>2018-08-10T08:32:57Z</time></trkpt>
<trkpt lat="46.19858" lon="7.43767"><ele>1554.6</ele><time>2018-08-10T08:33:00Z</time></trkpt>
<trkpt lat="46.1987" lon="7.43747"><ele>1552.4</ele><time>2018-08-10T08:33:02Z</time></trkpt>
<trkpt lat="46.19882" lon="7.43726"><ele>1549.4</ele><time>2018-08-10T08:33:04Z</time></trkpt>
<trkpt lat="46.19894" lon="7.43705"><ele>1547</ele><time>2018-08-10T08:33:06Z</time></trkpt>
<trkpt lat="46.19899" lon="7.43693"><ele>1545.6</ele><time>2018-08-10T08:33:07Z</time></trkpt>
<trkpt lat="46.19905" lon="7.43667"><ele>1543</ele><time>2018-08-10T08:33:09Z</time></trkpt>
<trkpt lat="46.1991" lon="7.43639"><ele>1540.6</ele><time>2018-08-10T08:33:11Z</time></trkpt>
<trkpt lat="46.19916" lon="7.43611"><ele>1538</ele><time>2018-08-10T08:33:13Z</time></trkpt>
<trkpt lat="46.19921" lon="7.43583"><ele>1535.6</ele><time>2018-08-10T08:33:15Z</time></trkpt>
<trkpt lat="46.19923" lon="7.43554"><ele>1533.4</ele><time>2018-08-10T08:33:17Z</time></trkpt>
<trkpt lat="46.19922" lon="7.43526"><ele>1531.2</ele><time>2018-08-10T08:33:19Z</time></trkpt>
<trkpt lat="46.19918" lon="7.43499"><ele>1529.8</ele><time>2018-08-10T08:33:21Z</time></trkpt>
<trkpt lat="46.19913" lon="7.43476"><ele>1528</ele><time>2018-08-10T08:33:23Z</time></trkpt>
<trkpt lat="46.19918" lon="7.43444"><ele>1523.2</ele><time>2018-08-10T08:33:26Z</time></trkpt>
<trkpt lat="46.19921" lon="7.43434"><ele>1522.2</ele><time>2018-08-10T08:33:27Z</time></trkpt>
<trkpt lat="46.1993" lon="7.43403"><ele>1519.2</ele><time>2018-08-10T08:33:30Z</time></trkpt>
<trkpt lat="46.19939" lon="7.43368"><ele>1515.8</ele><time>2018-08-10T08:33:33Z</time></trkpt>
<trkpt lat="46.19945" lon="7.43344"><ele>1513.8</ele><time>2018-08-10T08:33:35Z</time></trkpt>
<trkpt lat="46.19952" lon="7.43319"><ele>1511.8</ele><time>2018-08-10T08:33:37Z</time></trkpt>
<trkpt lat="46.19958" lon="7.43294"><ele>1510.2</ele><time>2018-08-10T08:33:39Z</time></trkpt>
<trkpt lat="46.19965" lon="7.43271"><ele>1509.2</ele><time>2018-08-10T08:33:41Z</time></trkpt>
<trkpt lat="46.1998" lon="7.43244"><ele>1506.4</ele><time>2018-08-10T08:33:44Z</time></trkpt>
<trkpt lat="46.19999" lon="7.43229"><ele>1504.8</ele><time>2018-08-10T08:33:47Z</time></trkpt>
<trkpt lat="46.20012" lon="7.43225"><ele>1504</ele><time>2018-08-10T08:33:49Z</time></trkpt>
<trkpt lat="46.20019" lon="7.43224"><ele>1503.8</ele><time>2018-08-10T08:33:50Z</time></trkpt>
<trkpt lat="46.20038" lon="7.43235"><ele>1503.4</ele><time>2018-08-10T08:33:54Z</time></trkpt>
<trkpt lat="46.2005" lon="7.43245"><ele>1502</ele><time>2018-08-10T08:33:58Z</time></trkpt>
<trkpt lat="46.20062" lon="7.43251"><ele>1501.6</ele><time>2018-08-10T08:34:02Z</time></trkpt>
<trkpt lat="46.2007" lon="7.43257"><ele>1502</ele><time>2018-08-10T08:34:06Z</time></trkpt>
<trkpt lat="46.20076" lon="7.43264"><ele>1502.6</ele><time>2018-08-10T08:34:10Z</time></trkpt>
<trkpt lat="46.20079" lon="7.43269"><ele>1503.4</ele><time>2018-08-10T08:34:12Z</time></trkpt>
<trkpt lat="46.2008" lon="7.43271"><ele>1503.8</ele><time>2018-08-10T08:34:13Z</time></trkpt>
<trkpt lat="46.20081" lon="7.43274"><ele>1504.2</ele><time>2018-08-10T08:34:14Z</time></trkpt>
<trkpt lat="46.20087" lon="7.43291"><ele>1507.2</ele><time>2018-08-10T08:34:21Z</time></trkpt>
<trkpt lat="46.20091" lon="7.433"><ele>1509.2</ele><time>2018-08-10T08:34:25Z</time></trkpt>
<trkpt lat="46.20092" lon="7.43302"><ele>1509.6</ele><time>2018-08-10T08:34:26Z</time></trkpt>
<trkpt lat="46.20093" lon="7.43307"><ele>1510.4</ele><time>2018-08-10T08:34:28Z</time></trkpt>
<trkpt lat="46.20101" lon="7.43325"><ele>1512.2</ele><time>2018-08-10T08:34:36Z</time></trkpt>
<trkpt lat="46.20103" lon="7.4333"><ele>1512.6</ele><time>2018-08-10T08:34:38Z</time></trkpt>
<trkpt lat="46.20104" lon="7.43337"><ele>1513.2</ele><time>2018-08-10T08:34:41Z</time></trkpt>
<trkpt lat="46.20105" lon="7.43342"><ele>1513.6</ele><time>2018-08-10T08:34:43Z</time></trkpt>
<trkpt lat="46.20108" lon="7.43353"><ele>1514.6</ele><time>2018-08-10T08:34:48Z</time></trkpt>
<trkpt lat="46.20109" lon="7.43365"><ele>1515.8</ele><time>2018-08-10T08:34:53Z</time></trkpt>
<trkpt lat="46.2011" lon="7.43377"><ele>1517.4</ele><time>2018-08-10T08:34:59Z</time></trkpt>
<trkpt lat="46.20111" lon="7.43381"><ele>1517.8</ele><time>2018-08-10T08:35:01Z</time></trkpt>
<trkpt lat="46.20112" lon="7.43386"><ele>1518.2</ele><time>2018-08-10T08:35:04Z</time></trkpt>
<trkpt lat="46.20115" lon="7.43395"><ele>1519.2</ele><time>2018-08-10T08:35:09Z</time></trkpt>
<trkpt lat="46.20116" lon="7.43398"><ele>1519.6</ele><time>2018-08-10T08:35:11Z</time></trkpt>
<trkpt lat="46.2012" lon="7.43407"><ele>1519.8</ele><time>2018-08-10T08:35:15Z</time></trkpt>
<trkpt lat="46.20121" lon="7.43411"><ele>1520.2</ele><time>2018-08-10T08:35:17Z</time></trkpt>
<trkpt lat="46.20122" lon="7.43415"><ele>1520.8</ele><time>2018-08-10T08:35:19Z</time></trkpt>
<trkpt lat="46.20124" lon="7.43421"><ele>1521.2</ele><time>2018-08-10T08:35:22Z</time></trkpt>
<trkpt lat="46.20131" lon="7.43446"><ele>1522.6</ele><time>2018-08-10T08:35:32Z</time></trkpt>
<trkpt lat="46.2014" lon="7.43459"><ele>1523.2</ele><time>2018-08-10T08:35:39Z</time></trkpt>
<trkpt lat="46.20152" lon="7.43476"><ele>1525</ele><time>2018-08-10T08:35:49Z</time></trkpt>
<trkpt lat="46.20156" lon="7.43481"><ele>1525.6</ele><time>2018-08-10T08:35:52Z</time></trkpt>
<trkpt lat="46.20163" lon="7.4349"><ele>1526.8</ele><time>2018-08-10T08:35:57Z</time></trkpt>
<trkpt lat="46.20172" lon="7.43501"><ele>1528.6</ele><time>2018-08-10T08:36:04Z</time></trkpt>
<trkpt lat="46.20178" lon="7.43516"><ele>1530.4</ele><time>2018-08-10T08:36:12Z</time></trkpt>
<trkpt lat="46.20181" lon="7.43527"><ele>1532</ele><time>2018-08-10T08:36:18Z</time></trkpt>
<trkpt lat="46.20188" lon="7.4355"><ele>1534</ele><time>2018-08-10T08:36:29Z</time></trkpt>
<trkpt lat="46.20189" lon="7.43552"><ele>1534.2</ele><time>2018-08-10T08:36:30Z</time></trkpt>
<trkpt lat="46.20194" lon="7.43559"><ele>1533.8</ele><time>2018-08-10T08:36:34Z</time></trkpt>
<trkpt lat="46.202" lon="7.43571"><ele>1534</ele><time>2018-08-10T08:36:40Z</time></trkpt>
<trkpt lat="46.202" lon="7.43573"><ele>1534.2</ele><time>2018-08-10T08:36:41Z</time></trkpt>
<trkpt lat="46.20202" lon="7.43578"><ele>1534.2</ele><time>2018-08-10T08:36:43Z</time></trkpt>
<trkpt lat="46.20206" lon="7.43583"><ele>1534.4</ele><time>2018-08-10T08:36:46Z</time></trkpt>
<trkpt lat="46.20207" lon="7.43588"><ele>1534.6</ele><time>2018-08-10T08:36:48Z</time></trkpt>
<trkpt lat="46.20217" lon="7.43617"><ele>1535.6</ele><time>2018-08-10T08:37:01Z</time></trkpt>
<trkpt lat="46.20223" lon="7.43635"><ele>1536.8</ele><time>2018-08-10T08:37:09Z</time></trkpt>
<trkpt lat="46.20228" lon="7.43645"><ele>1537.2</ele><time>2018-08-10T08:37:14Z</time></trkpt>
<trkpt lat="46.20237" lon="7.43659"><ele>1538.4</ele><time>2018-08-10T08:37:22Z</time></trkpt>
<trkpt lat="46.2025" lon="7.43677"><ele>1540.2</ele><time>2018-08-10T08:37:32Z</time></trkpt>
<trkpt lat="46.20264" lon="7.43694"><ele>1542</ele><time>2018-08-10T08:37:42Z</time></trkpt>
<trkpt lat="46.20278" lon="7.43712"><ele>1544.2</ele><time>2018-08-10T08:37:53Z</time></trkpt>
<trkpt lat="46.20293" lon="7.43743"><ele>1545.6</ele><time>2018-08-10T08:38:07Z</time></trkpt>
<trkpt lat="46.20302" lon="7.43766"><ele>1548.4</ele><time>2018-08-10T08:38:17Z</time></trkpt>
<trkpt lat="46.20305" lon="7.43772"><ele>1549.4</ele><time>2018-08-10T08:38:20Z</time></trkpt>
<trkpt lat="46.20313" lon="7.43784"><ele>1551</ele><time>2018-08-10T08:38:26Z</time></trkpt>
<trkpt lat="46.20318" lon="7.43789"><ele>1551.6</ele><time>2018-08-10T08:38:29Z</time></trkpt>
<trkpt lat="46.20332" lon="7.43799"><ele>1551.8</ele><time>2018-08-10T08:38:37Z</time></trkpt>
<trkpt lat="46.20335" lon="7.43803"><ele>1552</ele><time>2018-08-10T08:38:39Z</time></trkpt>
<trkpt lat="46.2035" lon="7.43821"><ele>1554.2</ele><time>2018-08-10T08:38:50Z</time></trkpt>
<trkpt lat="46.20361" lon="7.43842"><ele>1555.4</ele><time>2018-08-10T08:39:00Z</time></trkpt>
<trkpt lat="46.20362" lon="7.43843"><ele>1555.2</ele><time>2018-08-10T08:39:01Z</time></trkpt>
<trkpt lat="46.20366" lon="7.43849"><ele>1555.2</ele><time>2018-08-10T08:39:04Z</time></trkpt>
<trkpt lat="46.20384" lon="7.43882"><ele>1557.6</ele><time>2018-08-10T08:39:20Z</time></trkpt>
<trkpt lat="46.20399" lon="7.43902"><ele>1561</ele><time>2018-08-10T08:39:29Z</time></trkpt>
<trkpt lat="46.20417" lon="7.43914"><ele>1563.4</ele><time>2018-08-10T08:39:36Z</time></trkpt>
<trkpt lat="46.20434" lon="7.43926"><ele>1564.8</ele><time>2018-08-10T08:39:42Z</time></trkpt>
<trkpt lat="46.20448" lon="7.43945"><ele>1567</ele><time>2018-08-10T08:39:49Z</time></trkpt>
<trkpt lat="46.20455" lon="7.43955"><ele>1567.4</ele><time>2018-08-10T08:39:56Z</time></trkpt>
<trkpt lat="46.20468" lon="7.43968"><ele>1567.4</ele><time>2018-08-10T08:40:03Z</time></trkpt>
<trkpt lat="46.20486" lon="7.4398"><ele>1568.2</ele><time>2018-08-10T08:40:09Z</time></trkpt>
<trkpt lat="46.20507" lon="7.43988"><ele>1567.2</ele><time>2018-08-10T08:40:15Z</time></trkpt>
<trkpt lat="46.20523" lon="7.44"><ele>1565.6</ele><time>2018-08-10T08:40:19Z</time></trkpt>
<trkpt lat="46.20528" lon="7.44004"><ele>1565</ele><time>2018-08-10T08:40:20Z</time></trkpt>
<trkpt lat="46.20547" lon="7.44016"><ele>1562.2</ele><time>2018-08-10T08:40:24Z</time></trkpt>
<trkpt lat="46.20565" lon="7.44029"><ele>1559.4</ele><time>2018-08-10T08:40:28Z</time></trkpt>
<trkpt lat="46.20575" lon="7.44031"><ele>1558.8</ele><time>2018-08-10T08:40:31Z</time></trkpt>
<trkpt lat="46.20575" lon="7.44029"><ele>1558.2</ele><time>2018-08-10T08:40:35Z</time></trkpt>
<trkpt lat="46.20575" lon="7.4403"><ele>1558</ele><time>2018-08-10T08:40:39Z</time></trkpt>
<trkpt lat="46.20575" lon="7.4403"><ele>1558</ele><time>2018-08-10T08:41:07Z</time></trkpt>
<trkpt lat="46.20575" lon="7.44031"><ele>1556.8</ele><time>2018-08-10T08:41:20Z</time></trkpt>
<trkpt lat="46.20576" lon="7.4403"><ele>1556.8</ele><time>2018-08-10T08:41:28Z</time></trkpt>
<trkpt lat="46.20576" lon="7.44031"><ele>1556.8</ele><time>2018-08-10T08:41:30Z</time></trkpt>
<trkpt lat="46.20575" lon="7.44031"><ele>1556.6</ele><time>2018-08-10T08:41:35Z</time></trkpt>
<trkpt lat="46.20566" lon="7.44004"><ele>1554.8</ele><time>2018-08-10T08:41:45Z</time></trkpt>
<trkpt lat="46.20565" lon="7.44001"><ele>1554.2</ele><time>2018-08-10T08:41:46Z</time></trkpt>
<trkpt lat="46.20564" lon="7.43997"><ele>1554</ele><time>2018-08-10T08:41:47Z</time></trkpt>
<trkpt lat="46.2056" lon="7.43977"><ele>1547.8</ele><time>2018-08-10T08:41:59Z</time></trkpt>
<trkpt lat="46.20572" lon="7.43968"><ele>1544.4</ele><time>2018-08-10T08:42:06Z</time></trkpt>
<trkpt lat="46.20591" lon="7.43958"><ele>1537.6</ele><time>2018-08-10T08:42:14Z</time></trkpt>
<trkpt lat="46.20612" lon="7.43953"><ele>1529</ele><time>2018-08-10T08:42:21Z</time></trkpt>
<trkpt lat="46.2063" lon="7.43954"><ele>1521.4</ele><time>2018-08-10T08:42:30Z</time></trkpt>
<trkpt lat="46.20648" lon="7.43962"><ele>1516.4</ele><time>2018-08-10T08:42:37Z</time></trkpt>
<trkpt lat="46.20665" lon="7.43972"><ele>1511</ele><time>2018-08-10T08:42:43Z</time></trkpt>
<trkpt lat="46.20666" lon="7.43958"><ele>1509.4</ele><time>2018-08-10T08:42:48Z</time></trkpt>
<trkpt lat="46.20666" lon="7.43957"><ele>1509.2</ele><time>2018-08-10T08:42:49Z</time></trkpt>
<trkpt lat="46.20668" lon="7.43959"><ele>1508.4</ele><time>2018-08-10T08:42:59Z</time></trkpt>
</trkseg></trk></gpx>